<?xml version="1.0" encoding="UTF-8" standalone="no" ?>
<gpx xmlns="http://www.topografix.com/GPX/1/1" xmlns:xsi="http://www.w3.org/2001/XMLSchema-instance" xsi:schemaLocation="http://www.topografix.com/GPX/1/1 http://www.topografix.com/GPX/1/1/gpx.xsd" version="1.1" creator="VisuGPX - https://www.visugpx.com">
  <metadata>
    <name>Dampierre-en-Yvelines</name>
    <desc><![CDATA[Randonnée de 17 km en ligne à partir de Dampierre]]></desc>
  </metadata>
  <wpt lat="48.70779" lon="1.98675">
    <ele>123.34</ele>
    <name><![CDATA[0000285]]></name>
    <type><![CDATA[Point de départ]]></type>
  </wpt>
  <wpt lat="48.70356" lon="1.98404">
    <ele>102.26</ele>
    <name><![CDATA[0000286]]></name>
    <desc><![CDATA[<p><br /><h3>Nom: Segment: 1</h3><br />Heure de départ: 10:09 25 oct. 2020<br/>Heure d'arrivée: 16:35 25 oct. 2020<br/>Distance: 16,9km (06:25)<br/>Temps déplacement: 04:20<br/>Vitesse moyenne: 2,64 km/h<br/>Vitesse moyenne mouv.: 3,9 km/h<br/>Vitesse Max.: 8,56 km/h<br/>Altitude minimale: 85 m<br/>Altitude maximale: 207 m<br/>Vitesse de montée: 262,8 m/h<br/>Vitesse de descente: -258,3 m/h<br/>Gain d'altitude: 578 m<br/>Perte d'altitude: -597 m<br/>Temps de montée: 02:12<br/>Temps de descente: 02:18<br/></p>]]></desc>
    <type><![CDATA[Point d'arrivée]]></type>
  </wpt>
  <trk>
    <name><![CDATA[2020-10-25 10:09:35]]></name>
    <desc><![CDATA[<p>Heure de départ: 10:09 25 oct. 2020<br/>Heure d'arrivée: 16:35 25 oct. 2020<br/>Distance: 16,9 km (06:25)<br/>Temps déplacement: 04:20<br/>Vitesse moyenne: 2,64 km/h<br/>Vitesse moyenne mouv.: 3,9 km/h<br/>Vitesse Max.: 8,56 km/h<br/>Altitude minimale: 85 m<br/>Altitude maximale: 207 m<br/>Vitesse de montée: 262,8 m/h<br/>Vitesse de descente: -258,3 m/h<br/>Gain d'altitude: 578 m<br/>Perte d'altitude: -597 m<br/>Temps de montée: 02:12<br/>Temps de descente: 02:18<br/></p><hr align="center" width="480" style="height: 2px; width: 517px"/>]]></desc>
    <trkseg>
      <trkpt lat="48.70779" lon="1.98675">
        <ele>123.34</ele>
        <time>2020-10-25T09:09:36.475Z</time>
      </trkpt>
      <trkpt lat="48.70785" lon="1.98648">
        <ele>120.4</ele>
        <time>2020-10-25T09:09:58.000Z</time>
      </trkpt>
      <trkpt lat="48.70798" lon="1.98626">
        <ele>119.24</ele>
        <time>2020-10-25T09:10:16.000Z</time>
      </trkpt>
      <trkpt lat="48.70809" lon="1.98604">
        <ele>119.08</ele>
        <time>2020-10-25T09:10:34.000Z</time>
      </trkpt>
      <trkpt lat="48.70821" lon="1.98581">
        <ele>118.07</ele>
        <time>2020-10-25T09:10:49.000Z</time>
      </trkpt>
      <trkpt lat="48.70828" lon="1.98553">
        <ele>118.07</ele>
        <time>2020-10-25T09:11:06.000Z</time>
      </trkpt>
      <trkpt lat="48.70845" lon="1.9854">
        <ele>118.34</ele>
        <time>2020-10-25T09:11:27.000Z</time>
      </trkpt>
      <trkpt lat="48.70865" lon="1.98538">
        <ele>119.32</ele>
        <time>2020-10-25T09:11:43.000Z</time>
      </trkpt>
      <trkpt lat="48.70884" lon="1.98538">
        <ele>120.16</ele>
        <time>2020-10-25T09:11:59.000Z</time>
      </trkpt>
      <trkpt lat="48.70902" lon="1.98544">
        <ele>121.05</ele>
        <time>2020-10-25T09:12:16.000Z</time>
      </trkpt>
      <trkpt lat="48.70918" lon="1.98559">
        <ele>120.12</ele>
        <time>2020-10-25T09:12:30.000Z</time>
      </trkpt>
      <trkpt lat="48.70937" lon="1.98557">
        <ele>118.92</ele>
        <time>2020-10-25T09:12:43.000Z</time>
      </trkpt>
      <trkpt lat="48.70949" lon="1.98579">
        <ele>116.53</ele>
        <time>2020-10-25T09:13:05.000Z</time>
      </trkpt>
      <trkpt lat="48.70966" lon="1.98589">
        <ele>113.3</ele>
        <time>2020-10-25T09:13:23.000Z</time>
      </trkpt>
      <trkpt lat="48.70985" lon="1.98589">
        <ele>110.79</ele>
        <time>2020-10-25T09:13:41.000Z</time>
      </trkpt>
      <trkpt lat="48.71003" lon="1.98586">
        <ele>108.73</ele>
        <time>2020-10-25T09:13:56.999Z</time>
      </trkpt>
      <trkpt lat="48.71021" lon="1.9858">
        <ele>106.79</ele>
        <time>2020-10-25T09:14:11.999Z</time>
      </trkpt>
      <trkpt lat="48.71039" lon="1.98575">
        <ele>105.18</ele>
        <time>2020-10-25T09:14:24.999Z</time>
      </trkpt>
      <trkpt lat="48.71057" lon="1.98576">
        <ele>103.29</ele>
        <time>2020-10-25T09:14:42.999Z</time>
      </trkpt>
      <trkpt lat="48.71076" lon="1.98579">
        <ele>101.95</ele>
        <time>2020-10-25T09:14:59.999Z</time>
      </trkpt>
      <trkpt lat="48.71095" lon="1.98577">
        <ele>101.17</ele>
        <time>2020-10-25T09:15:12.999Z</time>
      </trkpt>
      <trkpt lat="48.71114" lon="1.98581">
        <ele>99.99</ele>
        <time>2020-10-25T09:15:28.999Z</time>
      </trkpt>
      <trkpt lat="48.71132" lon="1.98584">
        <ele>100.58</ele>
        <time>2020-10-25T09:15:43.999Z</time>
      </trkpt>
      <trkpt lat="48.71152" lon="1.98583">
        <ele>101.67</ele>
        <time>2020-10-25T09:15:58.999Z</time>
      </trkpt>
      <trkpt lat="48.71171" lon="1.98583">
        <ele>103.29</ele>
        <time>2020-10-25T09:16:18.999Z</time>
      </trkpt>
      <trkpt lat="48.71189" lon="1.98581">
        <ele>103.58</ele>
        <time>2020-10-25T09:16:33.999Z</time>
      </trkpt>
      <trkpt lat="48.71206" lon="1.98571">
        <ele>104.45</ele>
        <time>2020-10-25T09:16:49.999Z</time>
      </trkpt>
      <trkpt lat="48.71223" lon="1.98558">
        <ele>103.59</ele>
        <time>2020-10-25T09:17:08.999Z</time>
      </trkpt>
      <trkpt lat="48.71241" lon="1.98552">
        <ele>102.65</ele>
        <time>2020-10-25T09:17:21.999Z</time>
      </trkpt>
      <trkpt lat="48.71259" lon="1.98539">
        <ele>101.04</ele>
        <time>2020-10-25T09:17:38.999Z</time>
      </trkpt>
      <trkpt lat="48.71276" lon="1.9853">
        <ele>101.23</ele>
        <time>2020-10-25T09:17:51.999Z</time>
      </trkpt>
      <trkpt lat="48.71291" lon="1.98516">
        <ele>102.13</ele>
        <time>2020-10-25T09:18:07.999Z</time>
      </trkpt>
      <trkpt lat="48.71306" lon="1.98497">
        <ele>107.04</ele>
        <time>2020-10-25T09:18:50.999Z</time>
      </trkpt>
      <trkpt lat="48.71306" lon="1.98469">
        <ele>112.15</ele>
        <time>2020-10-25T09:26:01.999Z</time>
      </trkpt>
      <trkpt lat="48.71305" lon="1.98439">
        <ele>110.87</ele>
        <time>2020-10-25T09:26:22.999Z</time>
      </trkpt>
      <trkpt lat="48.71307" lon="1.98409">
        <ele>109.06</ele>
        <time>2020-10-25T09:26:37.999Z</time>
      </trkpt>
      <trkpt lat="48.71311" lon="1.98379">
        <ele>107.77</ele>
        <time>2020-10-25T09:26:54.999Z</time>
      </trkpt>
      <trkpt lat="48.71322" lon="1.98356">
        <ele>108.18</ele>
        <time>2020-10-25T09:27:08.999Z</time>
      </trkpt>
      <trkpt lat="48.71331" lon="1.98331">
        <ele>109.84</ele>
        <time>2020-10-25T09:27:24.999Z</time>
      </trkpt>
      <trkpt lat="48.71338" lon="1.98306">
        <ele>110.53</ele>
        <time>2020-10-25T09:27:43.000Z</time>
      </trkpt>
      <trkpt lat="48.71346" lon="1.98282">
        <ele>109.62</ele>
        <time>2020-10-25T09:28:02.000Z</time>
      </trkpt>
      <trkpt lat="48.7136" lon="1.98263">
        <ele>105.67</ele>
        <time>2020-10-25T09:28:19.000Z</time>
      </trkpt>
      <trkpt lat="48.71379" lon="1.98249">
        <ele>103.28</ele>
        <time>2020-10-25T09:28:30.000Z</time>
      </trkpt>
      <trkpt lat="48.71394" lon="1.98234">
        <ele>104.76</ele>
        <time>2020-10-25T09:29:20.000Z</time>
      </trkpt>
      <trkpt lat="48.71405" lon="1.98209">
        <ele>105.67</ele>
        <time>2020-10-25T09:29:38.000Z</time>
      </trkpt>
      <trkpt lat="48.71413" lon="1.98184">
        <ele>105.33</ele>
        <time>2020-10-25T09:30:10.000Z</time>
      </trkpt>
      <trkpt lat="48.71419" lon="1.98157">
        <ele>104.52</ele>
        <time>2020-10-25T09:30:21.000Z</time>
      </trkpt>
      <trkpt lat="48.71423" lon="1.9813">
        <ele>105.74</ele>
        <time>2020-10-25T09:30:37.000Z</time>
      </trkpt>
      <trkpt lat="48.7142" lon="1.98103">
        <ele>108.48</ele>
        <time>2020-10-25T09:30:50.000Z</time>
      </trkpt>
      <trkpt lat="48.71421" lon="1.98074">
        <ele>110.89</ele>
        <time>2020-10-25T09:31:07.000Z</time>
      </trkpt>
      <trkpt lat="48.71422" lon="1.98046">
        <ele>112.42</ele>
        <time>2020-10-25T09:31:25.000Z</time>
      </trkpt>
      <trkpt lat="48.71428" lon="1.98019">
        <ele>113.53</ele>
        <time>2020-10-25T09:31:41.000Z</time>
      </trkpt>
      <trkpt lat="48.7143" lon="1.97991">
        <ele>115.31</ele>
        <time>2020-10-25T09:31:53.000Z</time>
      </trkpt>
      <trkpt lat="48.71432" lon="1.97963">
        <ele>115.28</ele>
        <time>2020-10-25T09:32:04.000Z</time>
      </trkpt>
      <trkpt lat="48.71435" lon="1.97936">
        <ele>114.53</ele>
        <time>2020-10-25T09:32:21.000Z</time>
      </trkpt>
      <trkpt lat="48.71439" lon="1.97909">
        <ele>113.66</ele>
        <time>2020-10-25T09:32:43.000Z</time>
      </trkpt>
      <trkpt lat="48.71442" lon="1.97881">
        <ele>111.36</ele>
        <time>2020-10-25T09:33:03.000Z</time>
      </trkpt>
      <trkpt lat="48.71452" lon="1.97855">
        <ele>112.4</ele>
        <time>2020-10-25T09:34:26.000Z</time>
      </trkpt>
      <trkpt lat="48.71452" lon="1.97825">
        <ele>113.45</ele>
        <time>2020-10-25T09:34:42.000Z</time>
      </trkpt>
      <trkpt lat="48.71455" lon="1.97796">
        <ele>114.04</ele>
        <time>2020-10-25T09:35:02.000Z</time>
      </trkpt>
      <trkpt lat="48.71459" lon="1.97769">
        <ele>113.43</ele>
        <time>2020-10-25T09:35:19.000Z</time>
      </trkpt>
      <trkpt lat="48.71461" lon="1.97741">
        <ele>112.8</ele>
        <time>2020-10-25T09:35:35.000Z</time>
      </trkpt>
      <trkpt lat="48.71472" lon="1.97718">
        <ele>112.03</ele>
        <time>2020-10-25T09:35:57.000Z</time>
      </trkpt>
      <trkpt lat="48.71483" lon="1.97696">
        <ele>113.04</ele>
        <time>2020-10-25T09:36:17.000Z</time>
      </trkpt>
      <trkpt lat="48.71493" lon="1.97672">
        <ele>112.49</ele>
        <time>2020-10-25T09:36:32.000Z</time>
      </trkpt>
      <trkpt lat="48.71501" lon="1.97647">
        <ele>111.26</ele>
        <time>2020-10-25T09:36:45.000Z</time>
      </trkpt>
      <trkpt lat="48.71507" lon="1.97621">
        <ele>109.55</ele>
        <time>2020-10-25T09:37:01.000Z</time>
      </trkpt>
      <trkpt lat="48.7152" lon="1.97596">
        <ele>105.67</ele>
        <time>2020-10-25T09:37:22.000Z</time>
      </trkpt>
      <trkpt lat="48.71535" lon="1.97578">
        <ele>104.08</ele>
        <time>2020-10-25T09:37:35.000Z</time>
      </trkpt>
      <trkpt lat="48.71553" lon="1.97571">
        <ele>104.65</ele>
        <time>2020-10-25T09:37:43.000Z</time>
      </trkpt>
      <trkpt lat="48.71566" lon="1.97551">
        <ele>105.69</ele>
        <time>2020-10-25T09:38:03.000Z</time>
      </trkpt>
      <trkpt lat="48.71572" lon="1.97524">
        <ele>106.77</ele>
        <time>2020-10-25T09:38:24.000Z</time>
      </trkpt>
      <trkpt lat="48.71579" lon="1.97498">
        <ele>109.89</ele>
        <time>2020-10-25T09:38:48.000Z</time>
      </trkpt>
      <trkpt lat="48.71596" lon="1.97486">
        <ele>115.74</ele>
        <time>2020-10-25T09:40:19.000Z</time>
      </trkpt>
      <trkpt lat="48.71615" lon="1.97475">
        <ele>119.55</ele>
        <time>2020-10-25T09:40:36.000Z</time>
      </trkpt>
      <trkpt lat="48.71628" lon="1.97455">
        <ele>120.23</ele>
        <time>2020-10-25T09:40:51.000Z</time>
      </trkpt>
      <trkpt lat="48.71646" lon="1.97452">
        <ele>118.45</ele>
        <time>2020-10-25T09:41:31.999Z</time>
      </trkpt>
      <trkpt lat="48.71663" lon="1.97441">
        <ele>117.57</ele>
        <time>2020-10-25T09:41:47.999Z</time>
      </trkpt>
      <trkpt lat="48.7167" lon="1.97416">
        <ele>116.98</ele>
        <time>2020-10-25T09:42:06.999Z</time>
      </trkpt>
      <trkpt lat="48.7167" lon="1.97388">
        <ele>115.93</ele>
        <time>2020-10-25T09:42:29.999Z</time>
      </trkpt>
      <trkpt lat="48.71675" lon="1.9736">
        <ele>114.01</ele>
        <time>2020-10-25T09:42:42.999Z</time>
      </trkpt>
      <trkpt lat="48.71683" lon="1.97336">
        <ele>113.19</ele>
        <time>2020-10-25T09:42:55.999Z</time>
      </trkpt>
      <trkpt lat="48.71689" lon="1.97309">
        <ele>113.81</ele>
        <time>2020-10-25T09:43:10.999Z</time>
      </trkpt>
      <trkpt lat="48.71691" lon="1.97281">
        <ele>115.93</ele>
        <time>2020-10-25T09:43:26.999Z</time>
      </trkpt>
      <trkpt lat="48.71698" lon="1.97256">
        <ele>117.94</ele>
        <time>2020-10-25T09:43:41.999Z</time>
      </trkpt>
      <trkpt lat="48.71707" lon="1.97229">
        <ele>116.87</ele>
        <time>2020-10-25T09:43:58.999Z</time>
      </trkpt>
      <trkpt lat="48.71715" lon="1.97203">
        <ele>115.92</ele>
        <time>2020-10-25T09:44:11.999Z</time>
      </trkpt>
      <trkpt lat="48.71719" lon="1.97176">
        <ele>115.44</ele>
        <time>2020-10-25T09:44:47.999Z</time>
      </trkpt>
      <trkpt lat="48.71727" lon="1.97148">
        <ele>111.76</ele>
        <time>2020-10-25T09:45:03.999Z</time>
      </trkpt>
      <trkpt lat="48.7173" lon="1.97119">
        <ele>109.08</ele>
        <time>2020-10-25T09:45:18.999Z</time>
      </trkpt>
      <trkpt lat="48.71737" lon="1.97091">
        <ele>106.04</ele>
        <time>2020-10-25T09:45:31.999Z</time>
      </trkpt>
      <trkpt lat="48.71741" lon="1.97063">
        <ele>103.91</ele>
        <time>2020-10-25T09:45:58.999Z</time>
      </trkpt>
      <trkpt lat="48.71736" lon="1.97036">
        <ele>106.28</ele>
        <time>2020-10-25T09:46:39.999Z</time>
      </trkpt>
      <trkpt lat="48.71745" lon="1.97012">
        <ele>112.89</ele>
        <time>2020-10-25T09:52:03.999Z</time>
      </trkpt>
      <trkpt lat="48.71755" lon="1.96989">
        <ele>109.83</ele>
        <time>2020-10-25T09:52:16.999Z</time>
      </trkpt>
      <trkpt lat="48.7176" lon="1.96963">
        <ele>106.2</ele>
        <time>2020-10-25T09:52:31.999Z</time>
      </trkpt>
      <trkpt lat="48.71759" lon="1.96934">
        <ele>104.79</ele>
        <time>2020-10-25T09:52:45.999Z</time>
      </trkpt>
      <trkpt lat="48.71753" lon="1.96906">
        <ele>108.27</ele>
        <time>2020-10-25T09:53:25.999Z</time>
      </trkpt>
      <trkpt lat="48.71736" lon="1.96895">
        <ele>112.1</ele>
        <time>2020-10-25T09:53:37.999Z</time>
      </trkpt>
      <trkpt lat="48.71719" lon="1.96885">
        <ele>115.51</ele>
        <time>2020-10-25T09:53:52.999Z</time>
      </trkpt>
      <trkpt lat="48.71701" lon="1.96876">
        <ele>118.51</ele>
        <time>2020-10-25T09:54:16.999Z</time>
      </trkpt>
      <trkpt lat="48.71683" lon="1.9687">
        <ele>119.27</ele>
        <time>2020-10-25T09:54:31.999Z</time>
      </trkpt>
      <trkpt lat="48.71665" lon="1.96862">
        <ele>119.51</ele>
        <time>2020-10-25T09:54:45.999Z</time>
      </trkpt>
      <trkpt lat="48.71646" lon="1.96857">
        <ele>120.43</ele>
        <time>2020-10-25T09:55:00.000Z</time>
      </trkpt>
      <trkpt lat="48.71627" lon="1.96853">
        <ele>120.53</ele>
        <time>2020-10-25T09:55:13.000Z</time>
      </trkpt>
      <trkpt lat="48.71609" lon="1.96852">
        <ele>119.23</ele>
        <time>2020-10-25T09:55:30.000Z</time>
      </trkpt>
      <trkpt lat="48.71593" lon="1.96868">
        <ele>117.48</ele>
        <time>2020-10-25T09:55:47.000Z</time>
      </trkpt>
      <trkpt lat="48.71575" lon="1.9687">
        <ele>116.05</ele>
        <time>2020-10-25T09:56:05.000Z</time>
      </trkpt>
      <trkpt lat="48.71556" lon="1.96862">
        <ele>115.47</ele>
        <time>2020-10-25T09:56:31.000Z</time>
      </trkpt>
      <trkpt lat="48.71539" lon="1.9685">
        <ele>117.13</ele>
        <time>2020-10-25T09:56:49.000Z</time>
      </trkpt>
      <trkpt lat="48.71521" lon="1.96844">
        <ele>118.61</ele>
        <time>2020-10-25T09:57:05.000Z</time>
      </trkpt>
      <trkpt lat="48.71503" lon="1.96835">
        <ele>121.05</ele>
        <time>2020-10-25T09:57:23.000Z</time>
      </trkpt>
      <trkpt lat="48.71487" lon="1.96822">
        <ele>123.87</ele>
        <time>2020-10-25T09:57:40.000Z</time>
      </trkpt>
      <trkpt lat="48.71469" lon="1.9682">
        <ele>125.46</ele>
        <time>2020-10-25T09:57:55.000Z</time>
      </trkpt>
      <trkpt lat="48.71455" lon="1.96838">
        <ele>127.79</ele>
        <time>2020-10-25T09:58:15.000Z</time>
      </trkpt>
      <trkpt lat="48.71448" lon="1.96866">
        <ele>125.59</ele>
        <time>2020-10-25T09:58:40.000Z</time>
      </trkpt>
      <trkpt lat="48.71452" lon="1.96893">
        <ele>137.59</ele>
        <time>2020-10-25T10:03:44.000Z</time>
      </trkpt>
      <trkpt lat="48.71443" lon="1.96918">
        <ele>136.65</ele>
        <time>2020-10-25T10:04:08.000Z</time>
      </trkpt>
      <trkpt lat="48.71435" lon="1.96942">
        <ele>132.6</ele>
        <time>2020-10-25T10:04:33.000Z</time>
      </trkpt>
      <trkpt lat="48.71417" lon="1.96936">
        <ele>130.64</ele>
        <time>2020-10-25T10:04:55.000Z</time>
      </trkpt>
      <trkpt lat="48.71399" lon="1.96925">
        <ele>130.75</ele>
        <time>2020-10-25T10:05:13.000Z</time>
      </trkpt>
      <trkpt lat="48.71382" lon="1.96911">
        <ele>132.58</ele>
        <time>2020-10-25T10:05:36.000Z</time>
      </trkpt>
      <trkpt lat="48.71365" lon="1.969">
        <ele>134.62</ele>
        <time>2020-10-25T10:05:55.000Z</time>
      </trkpt>
      <trkpt lat="48.71347" lon="1.96891">
        <ele>136.13</ele>
        <time>2020-10-25T10:06:12.000Z</time>
      </trkpt>
      <trkpt lat="48.71331" lon="1.96877">
        <ele>138.37</ele>
        <time>2020-10-25T10:06:39.000Z</time>
      </trkpt>
      <trkpt lat="48.71317" lon="1.96859">
        <ele>139.5</ele>
        <time>2020-10-25T10:06:58.000Z</time>
      </trkpt>
      <trkpt lat="48.71301" lon="1.96843">
        <ele>141.9</ele>
        <time>2020-10-25T10:07:13.000Z</time>
      </trkpt>
      <trkpt lat="48.71285" lon="1.9683">
        <ele>144.71</ele>
        <time>2020-10-25T10:07:31.000Z</time>
      </trkpt>
      <trkpt lat="48.7127" lon="1.96815">
        <ele>149.61</ele>
        <time>2020-10-25T10:07:56.000Z</time>
      </trkpt>
      <trkpt lat="48.71256" lon="1.96796">
        <ele>151.07</ele>
        <time>2020-10-25T10:08:19.999Z</time>
      </trkpt>
      <trkpt lat="48.71238" lon="1.96783">
        <ele>153.79</ele>
        <time>2020-10-25T10:08:37.999Z</time>
      </trkpt>
      <trkpt lat="48.71221" lon="1.96772">
        <ele>157.94</ele>
        <time>2020-10-25T10:08:53.999Z</time>
      </trkpt>
      <trkpt lat="48.71202" lon="1.96759">
        <ele>164.04</ele>
        <time>2020-10-25T10:09:11.999Z</time>
      </trkpt>
      <trkpt lat="48.71184" lon="1.96761">
        <ele>167.42</ele>
        <time>2020-10-25T10:09:30.999Z</time>
      </trkpt>
      <trkpt lat="48.71165" lon="1.96764">
        <ele>169.36</ele>
        <time>2020-10-25T10:09:49.999Z</time>
      </trkpt>
      <trkpt lat="48.71148" lon="1.9677">
        <ele>169.3</ele>
        <time>2020-10-25T10:10:04.999Z</time>
      </trkpt>
      <trkpt lat="48.7113" lon="1.96779">
        <ele>168.59</ele>
        <time>2020-10-25T10:10:17.999Z</time>
      </trkpt>
      <trkpt lat="48.71113" lon="1.96789">
        <ele>166.75</ele>
        <time>2020-10-25T10:10:39.999Z</time>
      </trkpt>
      <trkpt lat="48.71096" lon="1.9678">
        <ele>164.7</ele>
        <time>2020-10-25T10:11:13.999Z</time>
      </trkpt>
      <trkpt lat="48.71077" lon="1.96785">
        <ele>165.97</ele>
        <time>2020-10-25T10:16:50.999Z</time>
      </trkpt>
      <trkpt lat="48.7106" lon="1.96792">
        <ele>164.85</ele>
        <time>2020-10-25T10:17:03.999Z</time>
      </trkpt>
      <trkpt lat="48.71042" lon="1.96799">
        <ele>163.8</ele>
        <time>2020-10-25T10:17:18.999Z</time>
      </trkpt>
      <trkpt lat="48.71024" lon="1.96809">
        <ele>162.37</ele>
        <time>2020-10-25T10:17:38.999Z</time>
      </trkpt>
      <trkpt lat="48.71006" lon="1.96808">
        <ele>161.58</ele>
        <time>2020-10-25T10:17:49.999Z</time>
      </trkpt>
      <trkpt lat="48.70988" lon="1.96812">
        <ele>160.56</ele>
        <time>2020-10-25T10:18:00.999Z</time>
      </trkpt>
      <trkpt lat="48.7097" lon="1.9682">
        <ele>160.24</ele>
        <time>2020-10-25T10:18:17.999Z</time>
      </trkpt>
      <trkpt lat="48.70952" lon="1.96825">
        <ele>160.07</ele>
        <time>2020-10-25T10:18:34.999Z</time>
      </trkpt>
      <trkpt lat="48.70933" lon="1.96827">
        <ele>161.87</ele>
        <time>2020-10-25T10:18:55.999Z</time>
      </trkpt>
      <trkpt lat="48.70915" lon="1.96828">
        <ele>160.28</ele>
        <time>2020-10-25T10:19:15.999Z</time>
      </trkpt>
      <trkpt lat="48.70902" lon="1.96848">
        <ele>160.83</ele>
        <time>2020-10-25T10:19:33.999Z</time>
      </trkpt>
      <trkpt lat="48.70889" lon="1.96869">
        <ele>161.36</ele>
        <time>2020-10-25T10:19:51.999Z</time>
      </trkpt>
      <trkpt lat="48.70876" lon="1.96888">
        <ele>161.75</ele>
        <time>2020-10-25T10:20:11.999Z</time>
      </trkpt>
      <trkpt lat="48.7086" lon="1.96905">
        <ele>161.41</ele>
        <time>2020-10-25T10:20:30.999Z</time>
      </trkpt>
      <trkpt lat="48.70848" lon="1.96926">
        <ele>160.86</ele>
        <time>2020-10-25T10:20:46.999Z</time>
      </trkpt>
      <trkpt lat="48.70835" lon="1.96945">
        <ele>159.98</ele>
        <time>2020-10-25T10:21:01.999Z</time>
      </trkpt>
      <trkpt lat="48.70824" lon="1.96967">
        <ele>159</ele>
        <time>2020-10-25T10:21:13.999Z</time>
      </trkpt>
      <trkpt lat="48.7081" lon="1.96986">
        <ele>158.54</ele>
        <time>2020-10-25T10:21:30.000Z</time>
      </trkpt>
      <trkpt lat="48.70795" lon="1.97003">
        <ele>158.32</ele>
        <time>2020-10-25T10:21:43.000Z</time>
      </trkpt>
      <trkpt lat="48.70781" lon="1.97022">
        <ele>158.88</ele>
        <time>2020-10-25T10:21:56.000Z</time>
      </trkpt>
      <trkpt lat="48.70773" lon="1.97047">
        <ele>159.88</ele>
        <time>2020-10-25T10:22:13.000Z</time>
      </trkpt>
      <trkpt lat="48.70767" lon="1.97073">
        <ele>159.81</ele>
        <time>2020-10-25T10:22:28.000Z</time>
      </trkpt>
      <trkpt lat="48.70757" lon="1.97097">
        <ele>159.62</ele>
        <time>2020-10-25T10:22:50.000Z</time>
      </trkpt>
      <trkpt lat="48.70748" lon="1.97123">
        <ele>158.69</ele>
        <time>2020-10-25T10:23:11.000Z</time>
      </trkpt>
      <trkpt lat="48.7074" lon="1.97149">
        <ele>156.12</ele>
        <time>2020-10-25T10:23:26.000Z</time>
      </trkpt>
      <trkpt lat="48.70732" lon="1.97176">
        <ele>153.03</ele>
        <time>2020-10-25T10:23:40.000Z</time>
      </trkpt>
      <trkpt lat="48.70722" lon="1.97199">
        <ele>154.31</ele>
        <time>2020-10-25T10:24:26.000Z</time>
      </trkpt>
      <trkpt lat="48.70703" lon="1.97203">
        <ele>159.86</ele>
        <time>2020-10-25T10:24:52.000Z</time>
      </trkpt>
      <trkpt lat="48.70685" lon="1.97203">
        <ele>162.95</ele>
        <time>2020-10-25T10:25:07.000Z</time>
      </trkpt>
      <trkpt lat="48.70666" lon="1.97197">
        <ele>164.81</ele>
        <time>2020-10-25T10:25:23.000Z</time>
      </trkpt>
      <trkpt lat="48.70647" lon="1.97194">
        <ele>165.82</ele>
        <time>2020-10-25T10:25:41.000Z</time>
      </trkpt>
      <trkpt lat="48.70628" lon="1.97191">
        <ele>166.56</ele>
        <time>2020-10-25T10:25:55.000Z</time>
      </trkpt>
      <trkpt lat="48.7061" lon="1.9719">
        <ele>167.29</ele>
        <time>2020-10-25T10:26:07.000Z</time>
      </trkpt>
      <trkpt lat="48.70591" lon="1.97187">
        <ele>168.61</ele>
        <time>2020-10-25T10:26:20.000Z</time>
      </trkpt>
      <trkpt lat="48.70573" lon="1.97186">
        <ele>170.75</ele>
        <time>2020-10-25T10:26:38.000Z</time>
      </trkpt>
      <trkpt lat="48.70558" lon="1.97202">
        <ele>172.69</ele>
        <time>2020-10-25T10:27:58.000Z</time>
      </trkpt>
      <trkpt lat="48.7054" lon="1.97206">
        <ele>171.18</ele>
        <time>2020-10-25T10:28:15.000Z</time>
      </trkpt>
      <trkpt lat="48.70521" lon="1.9721">
        <ele>171.4</ele>
        <time>2020-10-25T10:28:42.000Z</time>
      </trkpt>
      <trkpt lat="48.70504" lon="1.9722">
        <ele>171.58</ele>
        <time>2020-10-25T10:29:00.000Z</time>
      </trkpt>
      <trkpt lat="48.70486" lon="1.97231">
        <ele>171.69</ele>
        <time>2020-10-25T10:29:13.000Z</time>
      </trkpt>
      <trkpt lat="48.70468" lon="1.97237">
        <ele>173.25</ele>
        <time>2020-10-25T10:29:29.000Z</time>
      </trkpt>
      <trkpt lat="48.7045" lon="1.97243">
        <ele>176.09</ele>
        <time>2020-10-25T10:29:47.000Z</time>
      </trkpt>
      <trkpt lat="48.70432" lon="1.97248">
        <ele>177.68</ele>
        <time>2020-10-25T10:30:02.000Z</time>
      </trkpt>
      <trkpt lat="48.70413" lon="1.97254">
        <ele>178.5</ele>
        <time>2020-10-25T10:30:23.000Z</time>
      </trkpt>
      <trkpt lat="48.70396" lon="1.97262">
        <ele>178.54</ele>
        <time>2020-10-25T10:30:42.000Z</time>
      </trkpt>
      <trkpt lat="48.70386" lon="1.97288">
        <ele>177.8</ele>
        <time>2020-10-25T10:30:55.000Z</time>
      </trkpt>
      <trkpt lat="48.70378" lon="1.97314">
        <ele>176.55</ele>
        <time>2020-10-25T10:31:08.000Z</time>
      </trkpt>
      <trkpt lat="48.70369" lon="1.97339">
        <ele>173.73</ele>
        <time>2020-10-25T10:31:33.000Z</time>
      </trkpt>
      <trkpt lat="48.7036" lon="1.97364">
        <ele>171.18</ele>
        <time>2020-10-25T10:31:44.000Z</time>
      </trkpt>
      <trkpt lat="48.70352" lon="1.97391">
        <ele>169.12</ele>
        <time>2020-10-25T10:31:58.000Z</time>
      </trkpt>
      <trkpt lat="48.70344" lon="1.97416">
        <ele>167.37</ele>
        <time>2020-10-25T10:32:13.000Z</time>
      </trkpt>
      <trkpt lat="48.70353" lon="1.97392">
        <ele>157.19</ele>
        <time>2020-10-25T10:33:32.000Z</time>
      </trkpt>
      <trkpt lat="48.70357" lon="1.97365">
        <ele>157.3</ele>
        <time>2020-10-25T10:34:11.000Z</time>
      </trkpt>
      <trkpt lat="48.70369" lon="1.97343">
        <ele>157.88</ele>
        <time>2020-10-25T10:34:27.000Z</time>
      </trkpt>
      <trkpt lat="48.70379" lon="1.9732">
        <ele>157.68</ele>
        <time>2020-10-25T10:34:45.000Z</time>
      </trkpt>
      <trkpt lat="48.70389" lon="1.97296">
        <ele>157.72</ele>
        <time>2020-10-25T10:35:05.999Z</time>
      </trkpt>
      <trkpt lat="48.70392" lon="1.97268">
        <ele>160.77</ele>
        <time>2020-10-25T10:36:57.999Z</time>
      </trkpt>
      <trkpt lat="48.70408" lon="1.97256">
        <ele>164.21</ele>
        <time>2020-10-25T10:37:18.999Z</time>
      </trkpt>
      <trkpt lat="48.70422" lon="1.97237">
        <ele>166.52</ele>
        <time>2020-10-25T10:38:18.999Z</time>
      </trkpt>
      <trkpt lat="48.70408" lon="1.97253">
        <ele>158.81</ele>
        <time>2020-10-25T10:38:30.999Z</time>
      </trkpt>
      <trkpt lat="48.70392" lon="1.97271">
        <ele>160.27</ele>
        <time>2020-10-25T10:41:26.999Z</time>
      </trkpt>
      <trkpt lat="48.70379" lon="1.9729">
        <ele>162.1</ele>
        <time>2020-10-25T10:41:49.999Z</time>
      </trkpt>
      <trkpt lat="48.70367" lon="1.9731">
        <ele>163.31</ele>
        <time>2020-10-25T10:42:05.999Z</time>
      </trkpt>
      <trkpt lat="48.70356" lon="1.97334">
        <ele>163.93</ele>
        <time>2020-10-25T10:42:21.999Z</time>
      </trkpt>
      <trkpt lat="48.70339" lon="1.97344">
        <ele>162.62</ele>
        <time>2020-10-25T10:42:45.999Z</time>
      </trkpt>
      <trkpt lat="48.70326" lon="1.97362">
        <ele>160.05</ele>
        <time>2020-10-25T10:43:06.999Z</time>
      </trkpt>
      <trkpt lat="48.70313" lon="1.97382">
        <ele>151.39</ele>
        <time>2020-10-25T10:44:10.999Z</time>
      </trkpt>
      <trkpt lat="48.70295" lon="1.97375">
        <ele>141.22</ele>
        <time>2020-10-25T10:44:50.999Z</time>
      </trkpt>
      <trkpt lat="48.70277" lon="1.97383">
        <ele>132.76</ele>
        <time>2020-10-25T10:47:10.999Z</time>
      </trkpt>
      <trkpt lat="48.70258" lon="1.97385">
        <ele>129.96</ele>
        <time>2020-10-25T10:47:29.999Z</time>
      </trkpt>
      <trkpt lat="48.70239" lon="1.97381">
        <ele>125.53</ele>
        <time>2020-10-25T10:47:48.999Z</time>
      </trkpt>
      <trkpt lat="48.70221" lon="1.97384">
        <ele>120.43</ele>
        <time>2020-10-25T10:48:09.999Z</time>
      </trkpt>
      <trkpt lat="48.70209" lon="1.97406">
        <ele>115.02</ele>
        <time>2020-10-25T10:49:26.000Z</time>
      </trkpt>
      <trkpt lat="48.70199" lon="1.97432">
        <ele>113.74</ele>
        <time>2020-10-25T10:49:42.000Z</time>
      </trkpt>
      <trkpt lat="48.7018" lon="1.97439">
        <ele>112.75</ele>
        <time>2020-10-25T10:50:03.000Z</time>
      </trkpt>
      <trkpt lat="48.70162" lon="1.97432">
        <ele>113.57</ele>
        <time>2020-10-25T10:50:20.000Z</time>
      </trkpt>
      <trkpt lat="48.7015" lon="1.97412">
        <ele>114.38</ele>
        <time>2020-10-25T10:51:15.000Z</time>
      </trkpt>
      <trkpt lat="48.70135" lon="1.97395">
        <ele>111.59</ele>
        <time>2020-10-25T10:51:34.000Z</time>
      </trkpt>
      <trkpt lat="48.70122" lon="1.97374">
        <ele>109.41</ele>
        <time>2020-10-25T10:51:51.000Z</time>
      </trkpt>
      <trkpt lat="48.70108" lon="1.97356">
        <ele>107.39</ele>
        <time>2020-10-25T10:52:11.000Z</time>
      </trkpt>
      <trkpt lat="48.70096" lon="1.97335">
        <ele>103.58</ele>
        <time>2020-10-25T10:52:30.000Z</time>
      </trkpt>
      <trkpt lat="48.70085" lon="1.97312">
        <ele>100.31</ele>
        <time>2020-10-25T10:52:57.000Z</time>
      </trkpt>
      <trkpt lat="48.70077" lon="1.97286">
        <ele>107.15</ele>
        <time>2020-10-25T10:54:15.000Z</time>
      </trkpt>
      <trkpt lat="48.70067" lon="1.9726">
        <ele>108.34</ele>
        <time>2020-10-25T10:54:31.000Z</time>
      </trkpt>
      <trkpt lat="48.70058" lon="1.97233">
        <ele>108.55</ele>
        <time>2020-10-25T10:54:47.000Z</time>
      </trkpt>
      <trkpt lat="48.70051" lon="1.97208">
        <ele>110.44</ele>
        <time>2020-10-25T10:55:05.000Z</time>
      </trkpt>
      <trkpt lat="48.70039" lon="1.97185">
        <ele>110.81</ele>
        <time>2020-10-25T10:55:25.000Z</time>
      </trkpt>
      <trkpt lat="48.70026" lon="1.9716">
        <ele>111.21</ele>
        <time>2020-10-25T10:55:44.000Z</time>
      </trkpt>
      <trkpt lat="48.70017" lon="1.97136">
        <ele>114.02</ele>
        <time>2020-10-25T10:56:02.000Z</time>
      </trkpt>
      <trkpt lat="48.7001" lon="1.97111">
        <ele>114.5</ele>
        <time>2020-10-25T10:56:20.000Z</time>
      </trkpt>
      <trkpt lat="48.70006" lon="1.97084">
        <ele>113.15</ele>
        <time>2020-10-25T10:56:42.000Z</time>
      </trkpt>
      <trkpt lat="48.70009" lon="1.97057">
        <ele>110.22</ele>
        <time>2020-10-25T10:57:04.000Z</time>
      </trkpt>
      <trkpt lat="48.70002" lon="1.9703">
        <ele>107.22</ele>
        <time>2020-10-25T10:57:24.000Z</time>
      </trkpt>
      <trkpt lat="48.69995" lon="1.97005">
        <ele>106.1</ele>
        <time>2020-10-25T10:57:35.000Z</time>
      </trkpt>
      <trkpt lat="48.69995" lon="1.96976">
        <ele>106.12</ele>
        <time>2020-10-25T10:57:50.000Z</time>
      </trkpt>
      <trkpt lat="48.69991" lon="1.96948">
        <ele>106.87</ele>
        <time>2020-10-25T10:58:07.000Z</time>
      </trkpt>
      <trkpt lat="48.69987" lon="1.9692">
        <ele>108.76</ele>
        <time>2020-10-25T10:58:22.000Z</time>
      </trkpt>
      <trkpt lat="48.69978" lon="1.96894">
        <ele>110.84</ele>
        <time>2020-10-25T10:58:43.000Z</time>
      </trkpt>
      <trkpt lat="48.69967" lon="1.96873">
        <ele>112.93</ele>
        <time>2020-10-25T10:58:57.000Z</time>
      </trkpt>
      <trkpt lat="48.69951" lon="1.96856">
        <ele>117.41</ele>
        <time>2020-10-25T10:59:27.000Z</time>
      </trkpt>
      <trkpt lat="48.69934" lon="1.96846">
        <ele>123.55</ele>
        <time>2020-10-25T10:59:48.000Z</time>
      </trkpt>
      <trkpt lat="48.69915" lon="1.96837">
        <ele>129.16</ele>
        <time>2020-10-25T11:00:11.000Z</time>
      </trkpt>
      <trkpt lat="48.69898" lon="1.96827">
        <ele>132.48</ele>
        <time>2020-10-25T11:00:25.000Z</time>
      </trkpt>
      <trkpt lat="48.69881" lon="1.96817">
        <ele>134.43</ele>
        <time>2020-10-25T11:00:41.000Z</time>
      </trkpt>
      <trkpt lat="48.69866" lon="1.96801">
        <ele>138.05</ele>
        <time>2020-10-25T11:01:06.000Z</time>
      </trkpt>
      <trkpt lat="48.69848" lon="1.9679">
        <ele>141.06</ele>
        <time>2020-10-25T11:01:17.000Z</time>
      </trkpt>
      <trkpt lat="48.6983" lon="1.96782">
        <ele>142.17</ele>
        <time>2020-10-25T11:01:59.999Z</time>
      </trkpt>
      <trkpt lat="48.69818" lon="1.9676">
        <ele>141.78</ele>
        <time>2020-10-25T11:02:21.999Z</time>
      </trkpt>
      <trkpt lat="48.69807" lon="1.96736">
        <ele>142.08</ele>
        <time>2020-10-25T11:02:33.999Z</time>
      </trkpt>
      <trkpt lat="48.69798" lon="1.96711">
        <ele>145.64</ele>
        <time>2020-10-25T11:03:03.999Z</time>
      </trkpt>
      <trkpt lat="48.69792" lon="1.96685">
        <ele>147.08</ele>
        <time>2020-10-25T11:03:24.999Z</time>
      </trkpt>
      <trkpt lat="48.69787" lon="1.96658">
        <ele>148.85</ele>
        <time>2020-10-25T11:03:40.999Z</time>
      </trkpt>
      <trkpt lat="48.69785" lon="1.9663">
        <ele>151.2</ele>
        <time>2020-10-25T11:03:59.999Z</time>
      </trkpt>
      <trkpt lat="48.69781" lon="1.96601">
        <ele>152.26</ele>
        <time>2020-10-25T11:04:13.999Z</time>
      </trkpt>
      <trkpt lat="48.69777" lon="1.96574">
        <ele>155.42</ele>
        <time>2020-10-25T11:04:34.999Z</time>
      </trkpt>
      <trkpt lat="48.6977" lon="1.96548">
        <ele>157.53</ele>
        <time>2020-10-25T11:04:48.999Z</time>
      </trkpt>
      <trkpt lat="48.69762" lon="1.96523">
        <ele>169.95</ele>
        <time>2020-10-25T11:08:32.999Z</time>
      </trkpt>
      <trkpt lat="48.69752" lon="1.96497">
        <ele>168.95</ele>
        <time>2020-10-25T11:08:49.999Z</time>
      </trkpt>
      <trkpt lat="48.69743" lon="1.96473">
        <ele>167.41</ele>
        <time>2020-10-25T11:09:08.999Z</time>
      </trkpt>
      <trkpt lat="48.69733" lon="1.96449">
        <ele>166.96</ele>
        <time>2020-10-25T11:09:21.999Z</time>
      </trkpt>
      <trkpt lat="48.69722" lon="1.96425">
        <ele>166.46</ele>
        <time>2020-10-25T11:09:34.999Z</time>
      </trkpt>
      <trkpt lat="48.69712" lon="1.96401">
        <ele>166.57</ele>
        <time>2020-10-25T11:09:50.999Z</time>
      </trkpt>
      <trkpt lat="48.697" lon="1.96379">
        <ele>166.82</ele>
        <time>2020-10-25T11:10:05.999Z</time>
      </trkpt>
      <trkpt lat="48.69691" lon="1.96355">
        <ele>167.52</ele>
        <time>2020-10-25T11:10:21.999Z</time>
      </trkpt>
      <trkpt lat="48.69682" lon="1.96329">
        <ele>168.71</ele>
        <time>2020-10-25T11:10:34.999Z</time>
      </trkpt>
      <trkpt lat="48.69669" lon="1.96309">
        <ele>169.77</ele>
        <time>2020-10-25T11:10:48.999Z</time>
      </trkpt>
      <trkpt lat="48.69663" lon="1.96283">
        <ele>170.38</ele>
        <time>2020-10-25T11:11:01.999Z</time>
      </trkpt>
      <trkpt lat="48.69654" lon="1.96258">
        <ele>170.93</ele>
        <time>2020-10-25T11:11:19.999Z</time>
      </trkpt>
      <trkpt lat="48.69643" lon="1.96236">
        <ele>170.53</ele>
        <time>2020-10-25T11:11:34.999Z</time>
      </trkpt>
      <trkpt lat="48.6963" lon="1.96214">
        <ele>171.21</ele>
        <time>2020-10-25T11:11:46.999Z</time>
      </trkpt>
      <trkpt lat="48.69618" lon="1.96193">
        <ele>171.54</ele>
        <time>2020-10-25T11:12:06.999Z</time>
      </trkpt>
      <trkpt lat="48.69609" lon="1.96169">
        <ele>171.75</ele>
        <time>2020-10-25T11:12:17.999Z</time>
      </trkpt>
      <trkpt lat="48.69599" lon="1.96144">
        <ele>171.87</ele>
        <time>2020-10-25T11:12:33.999Z</time>
      </trkpt>
      <trkpt lat="48.69592" lon="1.96119">
        <ele>172.13</ele>
        <time>2020-10-25T11:12:49.999Z</time>
      </trkpt>
      <trkpt lat="48.69584" lon="1.96092">
        <ele>170.16</ele>
        <time>2020-10-25T11:13:06.999Z</time>
      </trkpt>
      <trkpt lat="48.69573" lon="1.9607">
        <ele>169.35</ele>
        <time>2020-10-25T11:13:18.999Z</time>
      </trkpt>
      <trkpt lat="48.69563" lon="1.96046">
        <ele>168.65</ele>
        <time>2020-10-25T11:13:36.999Z</time>
      </trkpt>
      <trkpt lat="48.69553" lon="1.96022">
        <ele>169.16</ele>
        <time>2020-10-25T11:13:49.999Z</time>
      </trkpt>
      <trkpt lat="48.69544" lon="1.95997">
        <ele>169.8</ele>
        <time>2020-10-25T11:14:03.999Z</time>
      </trkpt>
      <trkpt lat="48.69534" lon="1.95974">
        <ele>169.77</ele>
        <time>2020-10-25T11:14:18.999Z</time>
      </trkpt>
      <trkpt lat="48.69523" lon="1.95951">
        <ele>170.66</ele>
        <time>2020-10-25T11:14:34.999Z</time>
      </trkpt>
      <trkpt lat="48.69511" lon="1.95928">
        <ele>170.83</ele>
        <time>2020-10-25T11:14:48.999Z</time>
      </trkpt>
      <trkpt lat="48.69503" lon="1.95902">
        <ele>170.44</ele>
        <time>2020-10-25T11:15:01.999Z</time>
      </trkpt>
      <trkpt lat="48.69493" lon="1.9588">
        <ele>170.04</ele>
        <time>2020-10-25T11:15:19.000Z</time>
      </trkpt>
      <trkpt lat="48.69483" lon="1.95857">
        <ele>169.68</ele>
        <time>2020-10-25T11:15:33.000Z</time>
      </trkpt>
      <trkpt lat="48.69471" lon="1.95836">
        <ele>169.78</ele>
        <time>2020-10-25T11:15:48.000Z</time>
      </trkpt>
      <trkpt lat="48.69461" lon="1.95814">
        <ele>168.28</ele>
        <time>2020-10-25T11:16:03.000Z</time>
      </trkpt>
      <trkpt lat="48.6945" lon="1.9579">
        <ele>165.78</ele>
        <time>2020-10-25T11:16:21.000Z</time>
      </trkpt>
      <trkpt lat="48.69438" lon="1.95768">
        <ele>163.65</ele>
        <time>2020-10-25T11:16:38.000Z</time>
      </trkpt>
      <trkpt lat="48.69427" lon="1.95745">
        <ele>165.37</ele>
        <time>2020-10-25T11:18:22.000Z</time>
      </trkpt>
      <trkpt lat="48.69407" lon="1.95747">
        <ele>166.91</ele>
        <time>2020-10-25T11:18:45.000Z</time>
      </trkpt>
      <trkpt lat="48.6939" lon="1.95764">
        <ele>168.78</ele>
        <time>2020-10-25T11:19:09.000Z</time>
      </trkpt>
      <trkpt lat="48.69384" lon="1.95789">
        <ele>170.13</ele>
        <time>2020-10-25T11:19:23.000Z</time>
      </trkpt>
      <trkpt lat="48.69377" lon="1.95816">
        <ele>171.06</ele>
        <time>2020-10-25T11:19:36.000Z</time>
      </trkpt>
      <trkpt lat="48.69374" lon="1.95844">
        <ele>173.39</ele>
        <time>2020-10-25T11:19:55.000Z</time>
      </trkpt>
      <trkpt lat="48.69371" lon="1.95871">
        <ele>174.97</ele>
        <time>2020-10-25T11:20:13.000Z</time>
      </trkpt>
      <trkpt lat="48.69363" lon="1.95897">
        <ele>177.31</ele>
        <time>2020-10-25T11:20:29.000Z</time>
      </trkpt>
      <trkpt lat="48.69345" lon="1.95906">
        <ele>178.82</ele>
        <time>2020-10-25T11:20:47.000Z</time>
      </trkpt>
      <trkpt lat="48.69326" lon="1.95911">
        <ele>178.99</ele>
        <time>2020-10-25T11:20:58.000Z</time>
      </trkpt>
      <trkpt lat="48.69307" lon="1.95916">
        <ele>178.79</ele>
        <time>2020-10-25T11:21:15.000Z</time>
      </trkpt>
      <trkpt lat="48.69288" lon="1.95921">
        <ele>178.03</ele>
        <time>2020-10-25T11:21:36.000Z</time>
      </trkpt>
      <trkpt lat="48.6927" lon="1.9593">
        <ele>177.37</ele>
        <time>2020-10-25T11:21:50.000Z</time>
      </trkpt>
      <trkpt lat="48.69252" lon="1.95937">
        <ele>177.51</ele>
        <time>2020-10-25T11:22:07.000Z</time>
      </trkpt>
      <trkpt lat="48.69233" lon="1.95941">
        <ele>179.1</ele>
        <time>2020-10-25T11:22:26.000Z</time>
      </trkpt>
      <trkpt lat="48.69216" lon="1.95952">
        <ele>181.55</ele>
        <time>2020-10-25T11:22:50.000Z</time>
      </trkpt>
      <trkpt lat="48.69199" lon="1.95964">
        <ele>181.45</ele>
        <time>2020-10-25T11:23:56.000Z</time>
      </trkpt>
      <trkpt lat="48.69181" lon="1.95976">
        <ele>184.25</ele>
        <time>2020-10-25T11:24:12.000Z</time>
      </trkpt>
      <trkpt lat="48.69165" lon="1.95989">
        <ele>186.48</ele>
        <time>2020-10-25T11:24:40.000Z</time>
      </trkpt>
      <trkpt lat="48.69149" lon="1.96004">
        <ele>184.8</ele>
        <time>2020-10-25T11:25:09.000Z</time>
      </trkpt>
      <trkpt lat="48.69137" lon="1.96025">
        <ele>185.4</ele>
        <time>2020-10-25T11:25:19.000Z</time>
      </trkpt>
      <trkpt lat="48.69119" lon="1.96033">
        <ele>188.1</ele>
        <time>2020-10-25T11:25:40.000Z</time>
      </trkpt>
      <trkpt lat="48.69101" lon="1.9604">
        <ele>190.06</ele>
        <time>2020-10-25T11:26:02.000Z</time>
      </trkpt>
      <trkpt lat="48.69106" lon="1.96014">
        <ele>186.49</ele>
        <time>2020-10-25T11:29:46.999Z</time>
      </trkpt>
      <trkpt lat="48.69093" lon="1.96033">
        <ele>192.3</ele>
        <time>2020-10-25T11:32:26.999Z</time>
      </trkpt>
      <trkpt lat="48.69069" lon="1.96041">
        <ele>174.5</ele>
        <time>2020-10-25T11:39:17.536Z</time>
      </trkpt>
      <trkpt lat="48.69095" lon="1.96038">
        <ele>192.29</ele>
        <time>2020-10-25T11:39:19.503Z</time>
      </trkpt>
      <trkpt lat="48.69111" lon="1.96022">
        <ele>164.83</ele>
        <time>2020-10-25T11:42:41.324Z</time>
      </trkpt>
      <trkpt lat="48.6909" lon="1.96022">
        <ele>197.13</ele>
        <time>2020-10-25T11:47:00.000Z</time>
      </trkpt>
      <trkpt lat="48.69108" lon="1.96025">
        <ele>201.72</ele>
        <time>2020-10-25T11:48:21.000Z</time>
      </trkpt>
      <trkpt lat="48.69093" lon="1.96">
        <ele>207.57</ele>
        <time>2020-10-25T11:54:26.999Z</time>
      </trkpt>
      <trkpt lat="48.69092" lon="1.96031">
        <ele>204.59</ele>
        <time>2020-10-25T11:54:52.999Z</time>
      </trkpt>
      <trkpt lat="48.69103" lon="1.96009">
        <ele>193.59</ele>
        <time>2020-10-25T11:56:32.999Z</time>
      </trkpt>
      <trkpt lat="48.69093" lon="1.96032">
        <ele>191.82</ele>
        <time>2020-10-25T11:57:20.999Z</time>
      </trkpt>
      <trkpt lat="48.69082" lon="1.96055">
        <ele>189.88</ele>
        <time>2020-10-25T12:01:10.999Z</time>
      </trkpt>
      <trkpt lat="48.69068" lon="1.96074">
        <ele>187.56</ele>
        <time>2020-10-25T12:01:27.999Z</time>
      </trkpt>
      <trkpt lat="48.69051" lon="1.96085">
        <ele>186.76</ele>
        <time>2020-10-25T12:01:44.999Z</time>
      </trkpt>
      <trkpt lat="48.69034" lon="1.96096">
        <ele>185.97</ele>
        <time>2020-10-25T12:02:16.999Z</time>
      </trkpt>
      <trkpt lat="48.69024" lon="1.96118">
        <ele>182.72</ele>
        <time>2020-10-25T12:02:36.999Z</time>
      </trkpt>
      <trkpt lat="48.69026" lon="1.96147">
        <ele>178.8</ele>
        <time>2020-10-25T12:02:57.999Z</time>
      </trkpt>
      <trkpt lat="48.69035" lon="1.96171">
        <ele>176.04</ele>
        <time>2020-10-25T12:03:13.999Z</time>
      </trkpt>
      <trkpt lat="48.69035" lon="1.96199">
        <ele>174.62</ele>
        <time>2020-10-25T12:03:42.999Z</time>
      </trkpt>
      <trkpt lat="48.69025" lon="1.96224">
        <ele>171.56</ele>
        <time>2020-10-25T12:04:11.999Z</time>
      </trkpt>
      <trkpt lat="48.69016" lon="1.96253">
        <ele>168.2</ele>
        <time>2020-10-25T12:04:34.999Z</time>
      </trkpt>
      <trkpt lat="48.69005" lon="1.96276">
        <ele>165.11</ele>
        <time>2020-10-25T12:04:50.999Z</time>
      </trkpt>
      <trkpt lat="48.69001" lon="1.96303">
        <ele>162.63</ele>
        <time>2020-10-25T12:05:09.999Z</time>
      </trkpt>
      <trkpt lat="48.69002" lon="1.9633">
        <ele>161.38</ele>
        <time>2020-10-25T12:05:37.999Z</time>
      </trkpt>
      <trkpt lat="48.69005" lon="1.96358">
        <ele>162.86</ele>
        <time>2020-10-25T12:06:00.999Z</time>
      </trkpt>
      <trkpt lat="48.68987" lon="1.96354">
        <ele>161.72</ele>
        <time>2020-10-25T12:06:27.999Z</time>
      </trkpt>
      <trkpt lat="48.68971" lon="1.96339">
        <ele>161.07</ele>
        <time>2020-10-25T12:06:46.999Z</time>
      </trkpt>
      <trkpt lat="48.68967" lon="1.96311">
        <ele>161.01</ele>
        <time>2020-10-25T12:07:02.999Z</time>
      </trkpt>
      <trkpt lat="48.68963" lon="1.96284">
        <ele>160.23</ele>
        <time>2020-10-25T12:07:18.999Z</time>
      </trkpt>
      <trkpt lat="48.68957" lon="1.96258">
        <ele>159.72</ele>
        <time>2020-10-25T12:07:33.999Z</time>
      </trkpt>
      <trkpt lat="48.68946" lon="1.96235">
        <ele>160.04</ele>
        <time>2020-10-25T12:07:55.000Z</time>
      </trkpt>
      <trkpt lat="48.68928" lon="1.96239">
        <ele>157.37</ele>
        <time>2020-10-25T12:08:19.000Z</time>
      </trkpt>
      <trkpt lat="48.6891" lon="1.96254">
        <ele>155.37</ele>
        <time>2020-10-25T12:08:33.000Z</time>
      </trkpt>
      <trkpt lat="48.68893" lon="1.96265">
        <ele>154.38</ele>
        <time>2020-10-25T12:08:42.000Z</time>
      </trkpt>
      <trkpt lat="48.68876" lon="1.96272">
        <ele>152.72</ele>
        <time>2020-10-25T12:08:57.000Z</time>
      </trkpt>
      <trkpt lat="48.68857" lon="1.96267">
        <ele>150.81</ele>
        <time>2020-10-25T12:09:15.000Z</time>
      </trkpt>
      <trkpt lat="48.68844" lon="1.96249">
        <ele>148.22</ele>
        <time>2020-10-25T12:09:37.000Z</time>
      </trkpt>
      <trkpt lat="48.68827" lon="1.96263">
        <ele>147.58</ele>
        <time>2020-10-25T12:09:58.000Z</time>
      </trkpt>
      <trkpt lat="48.68823" lon="1.9629">
        <ele>148.7</ele>
        <time>2020-10-25T12:10:25.000Z</time>
      </trkpt>
      <trkpt lat="48.68808" lon="1.96306">
        <ele>148.15</ele>
        <time>2020-10-25T12:11:00.000Z</time>
      </trkpt>
      <trkpt lat="48.68791" lon="1.9632">
        <ele>145.68</ele>
        <time>2020-10-25T12:11:31.000Z</time>
      </trkpt>
      <trkpt lat="48.68775" lon="1.96337">
        <ele>145.07</ele>
        <time>2020-10-25T12:11:48.000Z</time>
      </trkpt>
      <trkpt lat="48.6876" lon="1.9632">
        <ele>144.49</ele>
        <time>2020-10-25T12:12:07.000Z</time>
      </trkpt>
      <trkpt lat="48.68746" lon="1.96302">
        <ele>143.91</ele>
        <time>2020-10-25T12:12:33.000Z</time>
      </trkpt>
      <trkpt lat="48.68729" lon="1.96289">
        <ele>144.82</ele>
        <time>2020-10-25T12:12:55.000Z</time>
      </trkpt>
      <trkpt lat="48.68714" lon="1.96275">
        <ele>147.23</ele>
        <time>2020-10-25T12:13:15.000Z</time>
      </trkpt>
      <trkpt lat="48.68696" lon="1.96266">
        <ele>148.76</ele>
        <time>2020-10-25T12:13:33.000Z</time>
      </trkpt>
      <trkpt lat="48.68677" lon="1.96266">
        <ele>150.63</ele>
        <time>2020-10-25T12:13:51.000Z</time>
      </trkpt>
      <trkpt lat="48.68659" lon="1.96261">
        <ele>153.24</ele>
        <time>2020-10-25T12:14:09.000Z</time>
      </trkpt>
      <trkpt lat="48.68641" lon="1.96255">
        <ele>156.84</ele>
        <time>2020-10-25T12:14:38.000Z</time>
      </trkpt>
      <trkpt lat="48.68627" lon="1.96236">
        <ele>159.09</ele>
        <time>2020-10-25T12:14:58.000Z</time>
      </trkpt>
      <trkpt lat="48.6862" lon="1.9621">
        <ele>161.09</ele>
        <time>2020-10-25T12:15:42.000Z</time>
      </trkpt>
      <trkpt lat="48.68616" lon="1.96183">
        <ele>165.8</ele>
        <time>2020-10-25T12:16:21.000Z</time>
      </trkpt>
      <trkpt lat="48.68624" lon="1.96158">
        <ele>169.37</ele>
        <time>2020-10-25T12:16:55.000Z</time>
      </trkpt>
      <trkpt lat="48.6864" lon="1.96143">
        <ele>174.07</ele>
        <time>2020-10-25T12:18:48.000Z</time>
      </trkpt>
      <trkpt lat="48.6865" lon="1.96119">
        <ele>172.42</ele>
        <time>2020-10-25T12:19:03.000Z</time>
      </trkpt>
      <trkpt lat="48.68662" lon="1.96096">
        <ele>172.78</ele>
        <time>2020-10-25T12:19:20.000Z</time>
      </trkpt>
      <trkpt lat="48.68665" lon="1.96069">
        <ele>173.98</ele>
        <time>2020-10-25T12:19:52.000Z</time>
      </trkpt>
      <trkpt lat="48.68669" lon="1.96041">
        <ele>172.78</ele>
        <time>2020-10-25T12:20:15.000Z</time>
      </trkpt>
      <trkpt lat="48.68666" lon="1.96014">
        <ele>173.2</ele>
        <time>2020-10-25T12:20:29.000Z</time>
      </trkpt>
      <trkpt lat="48.68665" lon="1.95986">
        <ele>173.41</ele>
        <time>2020-10-25T12:20:59.000Z</time>
      </trkpt>
      <trkpt lat="48.68666" lon="1.95958">
        <ele>170.95</ele>
        <time>2020-10-25T12:22:55.999Z</time>
      </trkpt>
      <trkpt lat="48.68662" lon="1.9593">
        <ele>171.03</ele>
        <time>2020-10-25T12:23:13.999Z</time>
      </trkpt>
      <trkpt lat="48.68648" lon="1.95913">
        <ele>171.98</ele>
        <time>2020-10-25T12:23:33.999Z</time>
      </trkpt>
      <trkpt lat="48.68629" lon="1.95904">
        <ele>170.86</ele>
        <time>2020-10-25T12:23:51.999Z</time>
      </trkpt>
      <trkpt lat="48.68612" lon="1.95896">
        <ele>167.9</ele>
        <time>2020-10-25T12:24:10.999Z</time>
      </trkpt>
      <trkpt lat="48.68594" lon="1.95904">
        <ele>165.32</ele>
        <time>2020-10-25T12:24:32.999Z</time>
      </trkpt>
      <trkpt lat="48.68575" lon="1.95898">
        <ele>164.56</ele>
        <time>2020-10-25T12:25:04.999Z</time>
      </trkpt>
      <trkpt lat="48.68558" lon="1.95892">
        <ele>164.23</ele>
        <time>2020-10-25T12:25:55.999Z</time>
      </trkpt>
      <trkpt lat="48.68558" lon="1.95863">
        <ele>170.65</ele>
        <time>2020-10-25T12:29:52.999Z</time>
      </trkpt>
      <trkpt lat="48.68565" lon="1.95838">
        <ele>173.74</ele>
        <time>2020-10-25T12:30:45.999Z</time>
      </trkpt>
      <trkpt lat="48.68578" lon="1.95818">
        <ele>174.75</ele>
        <time>2020-10-25T12:31:03.999Z</time>
      </trkpt>
      <trkpt lat="48.68574" lon="1.95791">
        <ele>175.74</ele>
        <time>2020-10-25T12:31:32.999Z</time>
      </trkpt>
      <trkpt lat="48.68558" lon="1.95778">
        <ele>176.23</ele>
        <time>2020-10-25T12:32:02.999Z</time>
      </trkpt>
      <trkpt lat="48.68542" lon="1.95765">
        <ele>175.51</ele>
        <time>2020-10-25T12:32:15.999Z</time>
      </trkpt>
      <trkpt lat="48.68526" lon="1.9575">
        <ele>174.17</ele>
        <time>2020-10-25T12:32:43.999Z</time>
      </trkpt>
      <trkpt lat="48.68509" lon="1.95738">
        <ele>168.76</ele>
        <time>2020-10-25T12:33:20.999Z</time>
      </trkpt>
      <trkpt lat="48.68493" lon="1.95722">
        <ele>166.3</ele>
        <time>2020-10-25T12:33:37.999Z</time>
      </trkpt>
      <trkpt lat="48.68476" lon="1.95709">
        <ele>166.7</ele>
        <time>2020-10-25T12:33:55.999Z</time>
      </trkpt>
      <trkpt lat="48.68458" lon="1.95698">
        <ele>166.33</ele>
        <time>2020-10-25T12:34:12.999Z</time>
      </trkpt>
      <trkpt lat="48.68448" lon="1.95675">
        <ele>166.35</ele>
        <time>2020-10-25T12:34:26.999Z</time>
      </trkpt>
      <trkpt lat="48.68437" lon="1.95651">
        <ele>167.52</ele>
        <time>2020-10-25T12:34:43.999Z</time>
      </trkpt>
      <trkpt lat="48.68427" lon="1.95629">
        <ele>170.96</ele>
        <time>2020-10-25T12:35:00.999Z</time>
      </trkpt>
      <trkpt lat="48.68412" lon="1.95613">
        <ele>173.23</ele>
        <time>2020-10-25T12:35:18.000Z</time>
      </trkpt>
      <trkpt lat="48.68406" lon="1.95586">
        <ele>174.56</ele>
        <time>2020-10-25T12:35:32.000Z</time>
      </trkpt>
      <trkpt lat="48.68403" lon="1.95558">
        <ele>176.37</ele>
        <time>2020-10-25T12:35:53.000Z</time>
      </trkpt>
      <trkpt lat="48.68391" lon="1.95535">
        <ele>178.41</ele>
        <time>2020-10-25T12:37:29.000Z</time>
      </trkpt>
      <trkpt lat="48.68375" lon="1.95523">
        <ele>178.79</ele>
        <time>2020-10-25T12:37:48.000Z</time>
      </trkpt>
      <trkpt lat="48.6836" lon="1.95505">
        <ele>178.54</ele>
        <time>2020-10-25T12:38:09.000Z</time>
      </trkpt>
      <trkpt lat="48.68345" lon="1.95488">
        <ele>177.92</ele>
        <time>2020-10-25T12:38:24.000Z</time>
      </trkpt>
      <trkpt lat="48.68329" lon="1.95476">
        <ele>186.83</ele>
        <time>2020-10-25T12:42:11.000Z</time>
      </trkpt>
      <trkpt lat="48.68312" lon="1.95464">
        <ele>185.62</ele>
        <time>2020-10-25T12:42:34.000Z</time>
      </trkpt>
      <trkpt lat="48.68296" lon="1.95449">
        <ele>183.75</ele>
        <time>2020-10-25T12:42:53.000Z</time>
      </trkpt>
      <trkpt lat="48.68285" lon="1.95427">
        <ele>182.76</ele>
        <time>2020-10-25T12:43:28.000Z</time>
      </trkpt>
      <trkpt lat="48.68302" lon="1.95414">
        <ele>182.25</ele>
        <time>2020-10-25T12:44:31.000Z</time>
      </trkpt>
      <trkpt lat="48.68315" lon="1.95393">
        <ele>179.38</ele>
        <time>2020-10-25T12:45:02.000Z</time>
      </trkpt>
      <trkpt lat="48.68323" lon="1.95368">
        <ele>176.59</ele>
        <time>2020-10-25T12:45:25.000Z</time>
      </trkpt>
      <trkpt lat="48.68333" lon="1.95344">
        <ele>174.41</ele>
        <time>2020-10-25T12:45:44.000Z</time>
      </trkpt>
      <trkpt lat="48.6835" lon="1.95337">
        <ele>174.34</ele>
        <time>2020-10-25T12:46:02.000Z</time>
      </trkpt>
      <trkpt lat="48.68366" lon="1.95351">
        <ele>174.33</ele>
        <time>2020-10-25T12:46:21.000Z</time>
      </trkpt>
      <trkpt lat="48.68377" lon="1.95374">
        <ele>171.39</ele>
        <time>2020-10-25T12:46:44.000Z</time>
      </trkpt>
      <trkpt lat="48.68381" lon="1.95401">
        <ele>169.26</ele>
        <time>2020-10-25T12:47:04.000Z</time>
      </trkpt>
      <trkpt lat="48.684" lon="1.95405">
        <ele>170.86</ele>
        <time>2020-10-25T12:49:33.999Z</time>
      </trkpt>
      <trkpt lat="48.68394" lon="1.95377">
        <ele>171.05</ele>
        <time>2020-10-25T12:52:55.999Z</time>
      </trkpt>
      <trkpt lat="48.68403" lon="1.95352">
        <ele>168.49</ele>
        <time>2020-10-25T12:53:13.999Z</time>
      </trkpt>
      <trkpt lat="48.68412" lon="1.95328">
        <ele>163.64</ele>
        <time>2020-10-25T12:53:39.999Z</time>
      </trkpt>
      <trkpt lat="48.68418" lon="1.953">
        <ele>163.19</ele>
        <time>2020-10-25T12:54:20.999Z</time>
      </trkpt>
      <trkpt lat="48.68431" lon="1.95281">
        <ele>163.83</ele>
        <time>2020-10-25T12:54:44.999Z</time>
      </trkpt>
      <trkpt lat="48.68444" lon="1.95261">
        <ele>164.74</ele>
        <time>2020-10-25T12:55:01.999Z</time>
      </trkpt>
      <trkpt lat="48.68448" lon="1.95233">
        <ele>166.02</ele>
        <time>2020-10-25T12:55:25.999Z</time>
      </trkpt>
      <trkpt lat="48.68447" lon="1.95206">
        <ele>165.36</ele>
        <time>2020-10-25T12:55:49.999Z</time>
      </trkpt>
      <trkpt lat="48.68456" lon="1.9518">
        <ele>164.93</ele>
        <time>2020-10-25T12:56:19.999Z</time>
      </trkpt>
      <trkpt lat="48.68459" lon="1.95151">
        <ele>164.72</ele>
        <time>2020-10-25T12:56:40.999Z</time>
      </trkpt>
      <trkpt lat="48.68462" lon="1.95124">
        <ele>166.05</ele>
        <time>2020-10-25T12:56:57.999Z</time>
      </trkpt>
      <trkpt lat="48.68471" lon="1.951">
        <ele>166.84</ele>
        <time>2020-10-25T12:57:17.999Z</time>
      </trkpt>
      <trkpt lat="48.68474" lon="1.95073">
        <ele>163.87</ele>
        <time>2020-10-25T12:57:50.999Z</time>
      </trkpt>
      <trkpt lat="48.68477" lon="1.95046">
        <ele>158.12</ele>
        <time>2020-10-25T12:58:16.999Z</time>
      </trkpt>
      <trkpt lat="48.68479" lon="1.95018">
        <ele>155.39</ele>
        <time>2020-10-25T12:58:53.999Z</time>
      </trkpt>
      <trkpt lat="48.68466" lon="1.94998">
        <ele>156.14</ele>
        <time>2020-10-25T12:59:22.999Z</time>
      </trkpt>
      <trkpt lat="48.6847" lon="1.94971">
        <ele>158.23</ele>
        <time>2020-10-25T12:59:43.999Z</time>
      </trkpt>
      <trkpt lat="48.68478" lon="1.94947">
        <ele>159.01</ele>
        <time>2020-10-25T12:59:59.999Z</time>
      </trkpt>
      <trkpt lat="48.68465" lon="1.94926">
        <ele>161.17</ele>
        <time>2020-10-25T13:00:37.999Z</time>
      </trkpt>
      <trkpt lat="48.6845" lon="1.9491">
        <ele>162.81</ele>
        <time>2020-10-25T13:00:54.999Z</time>
      </trkpt>
      <trkpt lat="48.68449" lon="1.94882">
        <ele>166.87</ele>
        <time>2020-10-25T13:01:49.999Z</time>
      </trkpt>
      <trkpt lat="48.68456" lon="1.94857">
        <ele>168.83</ele>
        <time>2020-10-25T13:02:33.999Z</time>
      </trkpt>
      <trkpt lat="48.68441" lon="1.94842">
        <ele>171.27</ele>
        <time>2020-10-25T13:03:06.000Z</time>
      </trkpt>
      <trkpt lat="48.68423" lon="1.94848">
        <ele>169.26</ele>
        <time>2020-10-25T13:03:30.000Z</time>
      </trkpt>
      <trkpt lat="48.68407" lon="1.9486">
        <ele>174.79</ele>
        <time>2020-10-25T13:05:23.000Z</time>
      </trkpt>
      <trkpt lat="48.68389" lon="1.94864">
        <ele>175.05</ele>
        <time>2020-10-25T13:05:39.000Z</time>
      </trkpt>
      <trkpt lat="48.68371" lon="1.94863">
        <ele>174.99</ele>
        <time>2020-10-25T13:05:52.000Z</time>
      </trkpt>
      <trkpt lat="48.68354" lon="1.94851">
        <ele>174.04</ele>
        <time>2020-10-25T13:06:09.000Z</time>
      </trkpt>
      <trkpt lat="48.68338" lon="1.94836">
        <ele>174.41</ele>
        <time>2020-10-25T13:06:38.000Z</time>
      </trkpt>
      <trkpt lat="48.68321" lon="1.94847">
        <ele>159.69</ele>
        <time>2020-10-25T13:08:49.000Z</time>
      </trkpt>
      <trkpt lat="48.68318" lon="1.9482">
        <ele>158.43</ele>
        <time>2020-10-25T13:09:43.000Z</time>
      </trkpt>
      <trkpt lat="48.68307" lon="1.94797">
        <ele>157.76</ele>
        <time>2020-10-25T13:10:01.000Z</time>
      </trkpt>
      <trkpt lat="48.68306" lon="1.9477">
        <ele>157.94</ele>
        <time>2020-10-25T13:10:21.000Z</time>
      </trkpt>
      <trkpt lat="48.683" lon="1.94743">
        <ele>159.6</ele>
        <time>2020-10-25T13:10:38.000Z</time>
      </trkpt>
      <trkpt lat="48.68299" lon="1.94714">
        <ele>161.88</ele>
        <time>2020-10-25T13:10:56.000Z</time>
      </trkpt>
      <trkpt lat="48.68299" lon="1.94687">
        <ele>164.26</ele>
        <time>2020-10-25T13:11:12.000Z</time>
      </trkpt>
      <trkpt lat="48.68296" lon="1.94659">
        <ele>166.49</ele>
        <time>2020-10-25T13:11:32.000Z</time>
      </trkpt>
      <trkpt lat="48.68305" lon="1.94634">
        <ele>166.69</ele>
        <time>2020-10-25T13:11:48.000Z</time>
      </trkpt>
      <trkpt lat="48.68309" lon="1.94606">
        <ele>167.02</ele>
        <time>2020-10-25T13:12:02.000Z</time>
      </trkpt>
      <trkpt lat="48.68306" lon="1.94579">
        <ele>168.18</ele>
        <time>2020-10-25T13:12:30.000Z</time>
      </trkpt>
      <trkpt lat="48.68306" lon="1.9455">
        <ele>168.4</ele>
        <time>2020-10-25T13:12:45.000Z</time>
      </trkpt>
      <trkpt lat="48.68304" lon="1.94522">
        <ele>169.94</ele>
        <time>2020-10-25T13:13:18.000Z</time>
      </trkpt>
      <trkpt lat="48.68286" lon="1.94515">
        <ele>170.19</ele>
        <time>2020-10-25T13:19:29.999Z</time>
      </trkpt>
      <trkpt lat="48.68268" lon="1.94509">
        <ele>159.83</ele>
        <time>2020-10-25T13:21:20.999Z</time>
      </trkpt>
      <trkpt lat="48.6825" lon="1.94508">
        <ele>149.33</ele>
        <time>2020-10-25T13:22:11.999Z</time>
      </trkpt>
      <trkpt lat="48.68234" lon="1.94494">
        <ele>143.13</ele>
        <time>2020-10-25T13:22:48.999Z</time>
      </trkpt>
      <trkpt lat="48.68229" lon="1.94466">
        <ele>140.67</ele>
        <time>2020-10-25T13:23:35.999Z</time>
      </trkpt>
      <trkpt lat="48.68214" lon="1.94446">
        <ele>132.96</ele>
        <time>2020-10-25T13:25:34.999Z</time>
      </trkpt>
      <trkpt lat="48.68197" lon="1.94455">
        <ele>136.31</ele>
        <time>2020-10-25T13:27:53.999Z</time>
      </trkpt>
      <trkpt lat="48.68179" lon="1.94456">
        <ele>132.17</ele>
        <time>2020-10-25T13:28:10.999Z</time>
      </trkpt>
      <trkpt lat="48.68162" lon="1.94465">
        <ele>130.64</ele>
        <time>2020-10-25T13:28:28.999Z</time>
      </trkpt>
      <trkpt lat="48.68151" lon="1.94489">
        <ele>130.14</ele>
        <time>2020-10-25T13:28:44.999Z</time>
      </trkpt>
      <trkpt lat="48.68149" lon="1.94518">
        <ele>131.02</ele>
        <time>2020-10-25T13:29:00.999Z</time>
      </trkpt>
      <trkpt lat="48.68149" lon="1.94546">
        <ele>131.7</ele>
        <time>2020-10-25T13:29:16.999Z</time>
      </trkpt>
      <trkpt lat="48.68142" lon="1.94572">
        <ele>132.84</ele>
        <time>2020-10-25T13:29:27.000Z</time>
      </trkpt>
      <trkpt lat="48.68138" lon="1.94599">
        <ele>136.7</ele>
        <time>2020-10-25T13:29:43.000Z</time>
      </trkpt>
      <trkpt lat="48.68138" lon="1.94627">
        <ele>140.24</ele>
        <time>2020-10-25T13:29:58.000Z</time>
      </trkpt>
      <trkpt lat="48.68143" lon="1.94656">
        <ele>140.99</ele>
        <time>2020-10-25T13:30:14.000Z</time>
      </trkpt>
      <trkpt lat="48.68142" lon="1.94684">
        <ele>142.54</ele>
        <time>2020-10-25T13:30:31.000Z</time>
      </trkpt>
      <trkpt lat="48.68137" lon="1.94711">
        <ele>144.84</ele>
        <time>2020-10-25T13:30:47.000Z</time>
      </trkpt>
      <trkpt lat="48.68126" lon="1.94734">
        <ele>145.21</ele>
        <time>2020-10-25T13:31:02.000Z</time>
      </trkpt>
      <trkpt lat="48.68118" lon="1.94762">
        <ele>144.32</ele>
        <time>2020-10-25T13:31:16.000Z</time>
      </trkpt>
      <trkpt lat="48.68113" lon="1.94788">
        <ele>142.35</ele>
        <time>2020-10-25T13:31:31.000Z</time>
      </trkpt>
      <trkpt lat="48.68107" lon="1.94814">
        <ele>138.35</ele>
        <time>2020-10-25T13:31:54.000Z</time>
      </trkpt>
      <trkpt lat="48.68097" lon="1.94838">
        <ele>131.82</ele>
        <time>2020-10-25T13:33:04.000Z</time>
      </trkpt>
      <trkpt lat="48.68089" lon="1.94863">
        <ele>126.47</ele>
        <time>2020-10-25T13:33:23.000Z</time>
      </trkpt>
      <trkpt lat="48.68086" lon="1.94892">
        <ele>124.25</ele>
        <time>2020-10-25T13:33:35.000Z</time>
      </trkpt>
      <trkpt lat="48.68086" lon="1.94919">
        <ele>122.11</ele>
        <time>2020-10-25T13:33:49.000Z</time>
      </trkpt>
      <trkpt lat="48.68077" lon="1.94945">
        <ele>119.66</ele>
        <time>2020-10-25T13:34:09.000Z</time>
      </trkpt>
      <trkpt lat="48.68065" lon="1.94967">
        <ele>118.71</ele>
        <time>2020-10-25T13:34:18.000Z</time>
      </trkpt>
      <trkpt lat="48.68047" lon="1.94975">
        <ele>114.98</ele>
        <time>2020-10-25T13:35:32.000Z</time>
      </trkpt>
      <trkpt lat="48.6803" lon="1.94983">
        <ele>115.55</ele>
        <time>2020-10-25T13:35:49.000Z</time>
      </trkpt>
      <trkpt lat="48.68015" lon="1.94997">
        <ele>115.3</ele>
        <time>2020-10-25T13:36:05.000Z</time>
      </trkpt>
      <trkpt lat="48.68" lon="1.95014">
        <ele>115.35</ele>
        <time>2020-10-25T13:36:20.000Z</time>
      </trkpt>
      <trkpt lat="48.67983" lon="1.95029">
        <ele>116.03</ele>
        <time>2020-10-25T13:36:34.000Z</time>
      </trkpt>
      <trkpt lat="48.67971" lon="1.95049">
        <ele>117.61</ele>
        <time>2020-10-25T13:36:49.000Z</time>
      </trkpt>
      <trkpt lat="48.67963" lon="1.95074">
        <ele>117.88</ele>
        <time>2020-10-25T13:37:05.000Z</time>
      </trkpt>
      <trkpt lat="48.67957" lon="1.95101">
        <ele>118.37</ele>
        <time>2020-10-25T13:37:28.000Z</time>
      </trkpt>
      <trkpt lat="48.67955" lon="1.95129">
        <ele>119.21</ele>
        <time>2020-10-25T13:37:41.000Z</time>
      </trkpt>
      <trkpt lat="48.67941" lon="1.95147">
        <ele>130.78</ele>
        <time>2020-10-25T13:39:11.000Z</time>
      </trkpt>
      <trkpt lat="48.67941" lon="1.95174">
        <ele>129.6</ele>
        <time>2020-10-25T13:39:21.000Z</time>
      </trkpt>
      <trkpt lat="48.6794" lon="1.95202">
        <ele>127.71</ele>
        <time>2020-10-25T13:39:38.000Z</time>
      </trkpt>
      <trkpt lat="48.67938" lon="1.9523">
        <ele>125.9</ele>
        <time>2020-10-25T13:39:56.000Z</time>
      </trkpt>
      <trkpt lat="48.67933" lon="1.9526">
        <ele>126.2</ele>
        <time>2020-10-25T13:40:11.000Z</time>
      </trkpt>
      <trkpt lat="48.67923" lon="1.95284">
        <ele>126.44</ele>
        <time>2020-10-25T13:40:21.000Z</time>
      </trkpt>
      <trkpt lat="48.6791" lon="1.95305">
        <ele>126.01</ele>
        <time>2020-10-25T13:40:37.000Z</time>
      </trkpt>
      <trkpt lat="48.67897" lon="1.95324">
        <ele>125.3</ele>
        <time>2020-10-25T13:40:53.000Z</time>
      </trkpt>
      <trkpt lat="48.6789" lon="1.95349">
        <ele>122.52</ele>
        <time>2020-10-25T13:41:14.000Z</time>
      </trkpt>
      <trkpt lat="48.67878" lon="1.95372">
        <ele>122.3</ele>
        <time>2020-10-25T13:41:31.000Z</time>
      </trkpt>
      <trkpt lat="48.67872" lon="1.95401">
        <ele>122.11</ele>
        <time>2020-10-25T13:41:44.000Z</time>
      </trkpt>
      <trkpt lat="48.67865" lon="1.95426">
        <ele>121.59</ele>
        <time>2020-10-25T13:42:01.000Z</time>
      </trkpt>
      <trkpt lat="48.67864" lon="1.95454">
        <ele>120.46</ele>
        <time>2020-10-25T13:42:14.000Z</time>
      </trkpt>
      <trkpt lat="48.67853" lon="1.95477">
        <ele>120</ele>
        <time>2020-10-25T13:42:46.999Z</time>
      </trkpt>
      <trkpt lat="48.67862" lon="1.95503">
        <ele>119.6</ele>
        <time>2020-10-25T13:43:40.999Z</time>
      </trkpt>
      <trkpt lat="48.67857" lon="1.95529">
        <ele>121.69</ele>
        <time>2020-10-25T13:43:52.999Z</time>
      </trkpt>
      <trkpt lat="48.67854" lon="1.95559">
        <ele>123.27</ele>
        <time>2020-10-25T13:44:08.999Z</time>
      </trkpt>
      <trkpt lat="48.67852" lon="1.95586">
        <ele>124.03</ele>
        <time>2020-10-25T13:44:26.999Z</time>
      </trkpt>
      <trkpt lat="48.67839" lon="1.95613">
        <ele>124.65</ele>
        <time>2020-10-25T13:44:40.999Z</time>
      </trkpt>
      <trkpt lat="48.67825" lon="1.95634">
        <ele>123.96</ele>
        <time>2020-10-25T13:44:59.999Z</time>
      </trkpt>
      <trkpt lat="48.67814" lon="1.95658">
        <ele>123.43</ele>
        <time>2020-10-25T13:45:15.999Z</time>
      </trkpt>
      <trkpt lat="48.67801" lon="1.95679">
        <ele>120.22</ele>
        <time>2020-10-25T13:45:32.999Z</time>
      </trkpt>
      <trkpt lat="48.67787" lon="1.95698">
        <ele>118.67</ele>
        <time>2020-10-25T13:45:47.999Z</time>
      </trkpt>
      <trkpt lat="48.67781" lon="1.95724">
        <ele>117.51</ele>
        <time>2020-10-25T13:46:06.999Z</time>
      </trkpt>
      <trkpt lat="48.67766" lon="1.95738">
        <ele>115.55</ele>
        <time>2020-10-25T13:46:19.999Z</time>
      </trkpt>
      <trkpt lat="48.67754" lon="1.95759">
        <ele>112.87</ele>
        <time>2020-10-25T13:46:37.999Z</time>
      </trkpt>
      <trkpt lat="48.67746" lon="1.95783">
        <ele>111.71</ele>
        <time>2020-10-25T13:46:56.999Z</time>
      </trkpt>
      <trkpt lat="48.67736" lon="1.95806">
        <ele>113.15</ele>
        <time>2020-10-25T13:47:12.999Z</time>
      </trkpt>
      <trkpt lat="48.67731" lon="1.95834">
        <ele>115.36</ele>
        <time>2020-10-25T13:47:26.999Z</time>
      </trkpt>
      <trkpt lat="48.67721" lon="1.95856">
        <ele>116.39</ele>
        <time>2020-10-25T13:47:38.999Z</time>
      </trkpt>
      <trkpt lat="48.67708" lon="1.9588">
        <ele>117.14</ele>
        <time>2020-10-25T13:47:55.999Z</time>
      </trkpt>
      <trkpt lat="48.67698" lon="1.95903">
        <ele>117.1</ele>
        <time>2020-10-25T13:48:07.999Z</time>
      </trkpt>
      <trkpt lat="48.67696" lon="1.9593">
        <ele>116.36</ele>
        <time>2020-10-25T13:48:18.999Z</time>
      </trkpt>
      <trkpt lat="48.67693" lon="1.95959">
        <ele>115.38</ele>
        <time>2020-10-25T13:48:30.999Z</time>
      </trkpt>
      <trkpt lat="48.67686" lon="1.95986">
        <ele>114.46</ele>
        <time>2020-10-25T13:48:45.999Z</time>
      </trkpt>
      <trkpt lat="48.67691" lon="1.96012">
        <ele>113.21</ele>
        <time>2020-10-25T13:49:04.999Z</time>
      </trkpt>
      <trkpt lat="48.67693" lon="1.96041">
        <ele>111.84</ele>
        <time>2020-10-25T13:49:20.999Z</time>
      </trkpt>
      <trkpt lat="48.67695" lon="1.9607">
        <ele>110.26</ele>
        <time>2020-10-25T13:49:31.999Z</time>
      </trkpt>
      <trkpt lat="48.67693" lon="1.96097">
        <ele>109.35</ele>
        <time>2020-10-25T13:49:46.999Z</time>
      </trkpt>
      <trkpt lat="48.67682" lon="1.96119">
        <ele>109.36</ele>
        <time>2020-10-25T13:49:56.999Z</time>
      </trkpt>
      <trkpt lat="48.67672" lon="1.96143">
        <ele>121.21</ele>
        <time>2020-10-25T13:53:12.999Z</time>
      </trkpt>
      <trkpt lat="48.67654" lon="1.96148">
        <ele>117.97</ele>
        <time>2020-10-25T13:53:29.999Z</time>
      </trkpt>
      <trkpt lat="48.67635" lon="1.96145">
        <ele>115.01</ele>
        <time>2020-10-25T13:53:45.999Z</time>
      </trkpt>
      <trkpt lat="48.67654" lon="1.96146">
        <ele>113.27</ele>
        <time>2020-10-25T13:54:20.999Z</time>
      </trkpt>
      <trkpt lat="48.67672" lon="1.96146">
        <ele>114.26</ele>
        <time>2020-10-25T13:55:11.999Z</time>
      </trkpt>
      <trkpt lat="48.67683" lon="1.96169">
        <ele>122.71</ele>
        <time>2020-10-25T13:55:31.999Z</time>
      </trkpt>
      <trkpt lat="48.67675" lon="1.96194">
        <ele>123.75</ele>
        <time>2020-10-25T13:55:43.999Z</time>
      </trkpt>
      <trkpt lat="48.67658" lon="1.96204">
        <ele>123.08</ele>
        <time>2020-10-25T13:55:59.000Z</time>
      </trkpt>
      <trkpt lat="48.67656" lon="1.96232">
        <ele>123.39</ele>
        <time>2020-10-25T13:57:11.000Z</time>
      </trkpt>
      <trkpt lat="48.6766" lon="1.9626">
        <ele>124.32</ele>
        <time>2020-10-25T13:57:27.000Z</time>
      </trkpt>
      <trkpt lat="48.6767" lon="1.96285">
        <ele>125.36</ele>
        <time>2020-10-25T13:57:42.000Z</time>
      </trkpt>
      <trkpt lat="48.67688" lon="1.96295">
        <ele>126.02</ele>
        <time>2020-10-25T13:57:57.000Z</time>
      </trkpt>
      <trkpt lat="48.67704" lon="1.96308">
        <ele>126</ele>
        <time>2020-10-25T13:58:10.000Z</time>
      </trkpt>
      <trkpt lat="48.67709" lon="1.96334">
        <ele>125.48</ele>
        <time>2020-10-25T13:58:31.000Z</time>
      </trkpt>
      <trkpt lat="48.67719" lon="1.96359">
        <ele>124.01</ele>
        <time>2020-10-25T13:58:46.000Z</time>
      </trkpt>
      <trkpt lat="48.67731" lon="1.9638">
        <ele>122.89</ele>
        <time>2020-10-25T13:59:03.000Z</time>
      </trkpt>
      <trkpt lat="48.67741" lon="1.96404">
        <ele>122.09</ele>
        <time>2020-10-25T13:59:18.000Z</time>
      </trkpt>
      <trkpt lat="48.67747" lon="1.96429">
        <ele>122.97</ele>
        <time>2020-10-25T13:59:53.000Z</time>
      </trkpt>
      <trkpt lat="48.67743" lon="1.96457">
        <ele>123.07</ele>
        <time>2020-10-25T14:00:16.000Z</time>
      </trkpt>
      <trkpt lat="48.6776" lon="1.9645">
        <ele>113.63</ele>
        <time>2020-10-25T14:02:02.000Z</time>
      </trkpt>
      <trkpt lat="48.6775" lon="1.96474">
        <ele>110.86</ele>
        <time>2020-10-25T14:02:43.000Z</time>
      </trkpt>
      <trkpt lat="48.67732" lon="1.96482">
        <ele>110.91</ele>
        <time>2020-10-25T14:02:57.000Z</time>
      </trkpt>
      <trkpt lat="48.67749" lon="1.96494">
        <ele>111.38</ele>
        <time>2020-10-25T14:03:47.000Z</time>
      </trkpt>
      <trkpt lat="48.67767" lon="1.96491">
        <ele>110.99</ele>
        <time>2020-10-25T14:04:05.000Z</time>
      </trkpt>
      <trkpt lat="48.67785" lon="1.96491">
        <ele>110.57</ele>
        <time>2020-10-25T14:04:33.000Z</time>
      </trkpt>
      <trkpt lat="48.67796" lon="1.96514">
        <ele>111.69</ele>
        <time>2020-10-25T14:05:05.000Z</time>
      </trkpt>
      <trkpt lat="48.67812" lon="1.96527">
        <ele>112.97</ele>
        <time>2020-10-25T14:05:25.000Z</time>
      </trkpt>
      <trkpt lat="48.6783" lon="1.96536">
        <ele>111.62</ele>
        <time>2020-10-25T14:06:03.000Z</time>
      </trkpt>
      <trkpt lat="48.67847" lon="1.96545">
        <ele>110.9</ele>
        <time>2020-10-25T14:06:20.000Z</time>
      </trkpt>
      <trkpt lat="48.67865" lon="1.96558">
        <ele>110.64</ele>
        <time>2020-10-25T14:06:41.000Z</time>
      </trkpt>
      <trkpt lat="48.67883" lon="1.96555">
        <ele>108.49</ele>
        <time>2020-10-25T14:06:54.000Z</time>
      </trkpt>
      <trkpt lat="48.67902" lon="1.9656">
        <ele>106.46</ele>
        <time>2020-10-25T14:07:02.000Z</time>
      </trkpt>
      <trkpt lat="48.67919" lon="1.96551">
        <ele>108.97</ele>
        <time>2020-10-25T14:07:28.000Z</time>
      </trkpt>
      <trkpt lat="48.67936" lon="1.96566">
        <ele>110.29</ele>
        <time>2020-10-25T14:07:45.000Z</time>
      </trkpt>
      <trkpt lat="48.67947" lon="1.96588">
        <ele>111.2</ele>
        <time>2020-10-25T14:08:00.000Z</time>
      </trkpt>
      <trkpt lat="48.67938" lon="1.96613">
        <ele>117.4</ele>
        <time>2020-10-25T14:10:18.999Z</time>
      </trkpt>
      <trkpt lat="48.6792" lon="1.96619">
        <ele>117.18</ele>
        <time>2020-10-25T14:10:48.999Z</time>
      </trkpt>
      <trkpt lat="48.67901" lon="1.96621">
        <ele>115.93</ele>
        <time>2020-10-25T14:11:03.999Z</time>
      </trkpt>
      <trkpt lat="48.67885" lon="1.96632">
        <ele>113.24</ele>
        <time>2020-10-25T14:11:19.999Z</time>
      </trkpt>
      <trkpt lat="48.67886" lon="1.9666">
        <ele>109</ele>
        <time>2020-10-25T14:11:39.999Z</time>
      </trkpt>
      <trkpt lat="48.67889" lon="1.96687">
        <ele>106.63</ele>
        <time>2020-10-25T14:11:53.999Z</time>
      </trkpt>
      <trkpt lat="48.67888" lon="1.96715">
        <ele>106.08</ele>
        <time>2020-10-25T14:12:12.999Z</time>
      </trkpt>
      <trkpt lat="48.67894" lon="1.96743">
        <ele>106.69</ele>
        <time>2020-10-25T14:12:25.999Z</time>
      </trkpt>
      <trkpt lat="48.67899" lon="1.9677">
        <ele>107.33</ele>
        <time>2020-10-25T14:12:41.999Z</time>
      </trkpt>
      <trkpt lat="48.67911" lon="1.96792">
        <ele>109.41</ele>
        <time>2020-10-25T14:12:55.999Z</time>
      </trkpt>
      <trkpt lat="48.67926" lon="1.96809">
        <ele>111.21</ele>
        <time>2020-10-25T14:13:06.999Z</time>
      </trkpt>
      <trkpt lat="48.67944" lon="1.96818">
        <ele>113.43</ele>
        <time>2020-10-25T14:13:17.999Z</time>
      </trkpt>
      <trkpt lat="48.67958" lon="1.96836">
        <ele>117.3</ele>
        <time>2020-10-25T14:13:39.999Z</time>
      </trkpt>
      <trkpt lat="48.67967" lon="1.9686">
        <ele>118.63</ele>
        <time>2020-10-25T14:13:56.999Z</time>
      </trkpt>
      <trkpt lat="48.67967" lon="1.9689">
        <ele>120.94</ele>
        <time>2020-10-25T14:14:11.999Z</time>
      </trkpt>
      <trkpt lat="48.67969" lon="1.96917">
        <ele>122.74</ele>
        <time>2020-10-25T14:14:28.999Z</time>
      </trkpt>
      <trkpt lat="48.67971" lon="1.96946">
        <ele>122.6</ele>
        <time>2020-10-25T14:14:38.999Z</time>
      </trkpt>
      <trkpt lat="48.67976" lon="1.96974">
        <ele>122.68</ele>
        <time>2020-10-25T14:14:53.999Z</time>
      </trkpt>
      <trkpt lat="48.67985" lon="1.96997">
        <ele>122.76</ele>
        <time>2020-10-25T14:15:11.999Z</time>
      </trkpt>
      <trkpt lat="48.67995" lon="1.9702">
        <ele>122.95</ele>
        <time>2020-10-25T14:15:26.999Z</time>
      </trkpt>
      <trkpt lat="48.68004" lon="1.97044">
        <ele>123.73</ele>
        <time>2020-10-25T14:15:39.999Z</time>
      </trkpt>
      <trkpt lat="48.68013" lon="1.97068">
        <ele>125.08</ele>
        <time>2020-10-25T14:15:59.999Z</time>
      </trkpt>
      <trkpt lat="48.68025" lon="1.97089">
        <ele>125.28</ele>
        <time>2020-10-25T14:16:12.999Z</time>
      </trkpt>
      <trkpt lat="48.68033" lon="1.97117">
        <ele>124.37</ele>
        <time>2020-10-25T14:16:29.999Z</time>
      </trkpt>
      <trkpt lat="48.68031" lon="1.97144">
        <ele>126.58</ele>
        <time>2020-10-25T14:16:45.999Z</time>
      </trkpt>
      <trkpt lat="48.68022" lon="1.97168">
        <ele>132.1</ele>
        <time>2020-10-25T14:17:03.999Z</time>
      </trkpt>
      <trkpt lat="48.68013" lon="1.97193">
        <ele>135.27</ele>
        <time>2020-10-25T14:17:15.999Z</time>
      </trkpt>
      <trkpt lat="48.68014" lon="1.97221">
        <ele>135.81</ele>
        <time>2020-10-25T14:17:22.999Z</time>
      </trkpt>
      <trkpt lat="48.68012" lon="1.97251">
        <ele>136.94</ele>
        <time>2020-10-25T14:17:33.999Z</time>
      </trkpt>
      <trkpt lat="48.68009" lon="1.9728">
        <ele>138</ele>
        <time>2020-10-25T14:17:54.999Z</time>
      </trkpt>
      <trkpt lat="48.68002" lon="1.97308">
        <ele>137.75</ele>
        <time>2020-10-25T14:18:06.999Z</time>
      </trkpt>
      <trkpt lat="48.68002" lon="1.97337">
        <ele>137.72</ele>
        <time>2020-10-25T14:18:18.999Z</time>
      </trkpt>
      <trkpt lat="48.68005" lon="1.97368">
        <ele>137.97</ele>
        <time>2020-10-25T14:18:35.999Z</time>
      </trkpt>
      <trkpt lat="48.68011" lon="1.97394">
        <ele>138.09</ele>
        <time>2020-10-25T14:18:51.999Z</time>
      </trkpt>
      <trkpt lat="48.68002" lon="1.97422">
        <ele>139.29</ele>
        <time>2020-10-25T14:19:06.999Z</time>
      </trkpt>
      <trkpt lat="48.67997" lon="1.97451">
        <ele>137.77</ele>
        <time>2020-10-25T14:19:22.999Z</time>
      </trkpt>
      <trkpt lat="48.67996" lon="1.97479">
        <ele>137.49</ele>
        <time>2020-10-25T14:19:34.999Z</time>
      </trkpt>
      <trkpt lat="48.68003" lon="1.97506">
        <ele>137.74</ele>
        <time>2020-10-25T14:19:48.999Z</time>
      </trkpt>
      <trkpt lat="48.68007" lon="1.97533">
        <ele>137.59</ele>
        <time>2020-10-25T14:20:00.999Z</time>
      </trkpt>
      <trkpt lat="48.68006" lon="1.97562">
        <ele>138.61</ele>
        <time>2020-10-25T14:20:14.999Z</time>
      </trkpt>
      <trkpt lat="48.68004" lon="1.9759">
        <ele>140.23</ele>
        <time>2020-10-25T14:20:27.999Z</time>
      </trkpt>
      <trkpt lat="48.68" lon="1.97618">
        <ele>141.13</ele>
        <time>2020-10-25T14:20:42.999Z</time>
      </trkpt>
      <trkpt lat="48.68008" lon="1.97645">
        <ele>141.22</ele>
        <time>2020-10-25T14:21:03.999Z</time>
      </trkpt>
      <trkpt lat="48.68028" lon="1.97649">
        <ele>140.15</ele>
        <time>2020-10-25T14:21:19.999Z</time>
      </trkpt>
      <trkpt lat="48.68043" lon="1.97667">
        <ele>138.45</ele>
        <time>2020-10-25T14:21:35.999Z</time>
      </trkpt>
      <trkpt lat="48.68039" lon="1.97695">
        <ele>137.36</ele>
        <time>2020-10-25T14:21:49.999Z</time>
      </trkpt>
      <trkpt lat="48.68034" lon="1.97721">
        <ele>137.79</ele>
        <time>2020-10-25T14:22:03.999Z</time>
      </trkpt>
      <trkpt lat="48.68028" lon="1.97752">
        <ele>139.25</ele>
        <time>2020-10-25T14:22:17.000Z</time>
      </trkpt>
      <trkpt lat="48.68028" lon="1.97781">
        <ele>141.27</ele>
        <time>2020-10-25T14:22:33.000Z</time>
      </trkpt>
      <trkpt lat="48.68025" lon="1.97808">
        <ele>144.34</ele>
        <time>2020-10-25T14:22:48.000Z</time>
      </trkpt>
      <trkpt lat="48.68016" lon="1.97832">
        <ele>148.91</ele>
        <time>2020-10-25T14:27:37.000Z</time>
      </trkpt>
      <trkpt lat="48.68007" lon="1.97856">
        <ele>145.92</ele>
        <time>2020-10-25T14:27:52.000Z</time>
      </trkpt>
      <trkpt lat="48.68003" lon="1.97885">
        <ele>143.52</ele>
        <time>2020-10-25T14:28:06.000Z</time>
      </trkpt>
      <trkpt lat="48.67997" lon="1.97911">
        <ele>140.21</ele>
        <time>2020-10-25T14:28:20.000Z</time>
      </trkpt>
      <trkpt lat="48.67993" lon="1.9794">
        <ele>136.91</ele>
        <time>2020-10-25T14:28:36.000Z</time>
      </trkpt>
      <trkpt lat="48.67986" lon="1.97965">
        <ele>134.84</ele>
        <time>2020-10-25T14:28:50.000Z</time>
      </trkpt>
      <trkpt lat="48.67976" lon="1.97988">
        <ele>134.28</ele>
        <time>2020-10-25T14:29:03.000Z</time>
      </trkpt>
      <trkpt lat="48.67965" lon="1.98012">
        <ele>134.99</ele>
        <time>2020-10-25T14:29:17.000Z</time>
      </trkpt>
      <trkpt lat="48.67953" lon="1.98035">
        <ele>134.83</ele>
        <time>2020-10-25T14:29:32.000Z</time>
      </trkpt>
      <trkpt lat="48.67946" lon="1.9806">
        <ele>133.47</ele>
        <time>2020-10-25T14:29:48.000Z</time>
      </trkpt>
      <trkpt lat="48.67941" lon="1.98087">
        <ele>132.42</ele>
        <time>2020-10-25T14:30:01.000Z</time>
      </trkpt>
      <trkpt lat="48.67938" lon="1.98114">
        <ele>130.6</ele>
        <time>2020-10-25T14:30:13.000Z</time>
      </trkpt>
      <trkpt lat="48.67936" lon="1.98141">
        <ele>128.47</ele>
        <time>2020-10-25T14:30:28.000Z</time>
      </trkpt>
      <trkpt lat="48.67929" lon="1.98169">
        <ele>127.83</ele>
        <time>2020-10-25T14:30:40.000Z</time>
      </trkpt>
      <trkpt lat="48.6792" lon="1.98195">
        <ele>127.02</ele>
        <time>2020-10-25T14:30:54.000Z</time>
      </trkpt>
      <trkpt lat="48.67926" lon="1.98224">
        <ele>126.68</ele>
        <time>2020-10-25T14:31:09.000Z</time>
      </trkpt>
      <trkpt lat="48.67938" lon="1.98244">
        <ele>128.03</ele>
        <time>2020-10-25T14:31:28.000Z</time>
      </trkpt>
      <trkpt lat="48.67955" lon="1.9826">
        <ele>127.89</ele>
        <time>2020-10-25T14:31:44.000Z</time>
      </trkpt>
      <trkpt lat="48.67969" lon="1.98241">
        <ele>128.37</ele>
        <time>2020-10-25T14:31:58.000Z</time>
      </trkpt>
      <trkpt lat="48.67985" lon="1.98228">
        <ele>130.01</ele>
        <time>2020-10-25T14:32:13.000Z</time>
      </trkpt>
      <trkpt lat="48.68" lon="1.98209">
        <ele>132.52</ele>
        <time>2020-10-25T14:32:28.000Z</time>
      </trkpt>
      <trkpt lat="48.68018" lon="1.98195">
        <ele>134.63</ele>
        <time>2020-10-25T14:32:42.000Z</time>
      </trkpt>
      <trkpt lat="48.68035" lon="1.98185">
        <ele>135.15</ele>
        <time>2020-10-25T14:32:54.000Z</time>
      </trkpt>
      <trkpt lat="48.68051" lon="1.98168">
        <ele>135.89</ele>
        <time>2020-10-25T14:33:07.000Z</time>
      </trkpt>
      <trkpt lat="48.68068" lon="1.98154">
        <ele>135.78</ele>
        <time>2020-10-25T14:33:22.000Z</time>
      </trkpt>
      <trkpt lat="48.68085" lon="1.98146">
        <ele>134</ele>
        <time>2020-10-25T14:33:35.000Z</time>
      </trkpt>
      <trkpt lat="48.68104" lon="1.98136">
        <ele>132.51</ele>
        <time>2020-10-25T14:33:47.000Z</time>
      </trkpt>
      <trkpt lat="48.68123" lon="1.98138">
        <ele>131.39</ele>
        <time>2020-10-25T14:34:02.000Z</time>
      </trkpt>
      <trkpt lat="48.68139" lon="1.98155">
        <ele>128.79</ele>
        <time>2020-10-25T14:34:17.000Z</time>
      </trkpt>
      <trkpt lat="48.68148" lon="1.98178">
        <ele>122.36</ele>
        <time>2020-10-25T14:34:38.000Z</time>
      </trkpt>
      <trkpt lat="48.68167" lon="1.98191">
        <ele>118.16</ele>
        <time>2020-10-25T14:34:49.000Z</time>
      </trkpt>
      <trkpt lat="48.68183" lon="1.98207">
        <ele>116.14</ele>
        <time>2020-10-25T14:35:02.000Z</time>
      </trkpt>
      <trkpt lat="48.68202" lon="1.98204">
        <ele>115.95</ele>
        <time>2020-10-25T14:35:18.000Z</time>
      </trkpt>
      <trkpt lat="48.68219" lon="1.98194">
        <ele>118.43</ele>
        <time>2020-10-25T14:35:33.999Z</time>
      </trkpt>
      <trkpt lat="48.68236" lon="1.98183">
        <ele>120.93</ele>
        <time>2020-10-25T14:35:48.999Z</time>
      </trkpt>
      <trkpt lat="48.68254" lon="1.98177">
        <ele>122.82</ele>
        <time>2020-10-25T14:36:02.999Z</time>
      </trkpt>
      <trkpt lat="48.68273" lon="1.98185">
        <ele>125.38</ele>
        <time>2020-10-25T14:36:18.999Z</time>
      </trkpt>
      <trkpt lat="48.68287" lon="1.98204">
        <ele>127.23</ele>
        <time>2020-10-25T14:36:34.999Z</time>
      </trkpt>
      <trkpt lat="48.68308" lon="1.98207">
        <ele>128.73</ele>
        <time>2020-10-25T14:36:46.999Z</time>
      </trkpt>
      <trkpt lat="48.68305" lon="1.98235">
        <ele>132.93</ele>
        <time>2020-10-25T14:39:55.999Z</time>
      </trkpt>
      <trkpt lat="48.68307" lon="1.98264">
        <ele>131.32</ele>
        <time>2020-10-25T14:40:11.999Z</time>
      </trkpt>
      <trkpt lat="48.68304" lon="1.98293">
        <ele>131.08</ele>
        <time>2020-10-25T14:40:22.999Z</time>
      </trkpt>
      <trkpt lat="48.68303" lon="1.98322">
        <ele>131.14</ele>
        <time>2020-10-25T14:40:35.999Z</time>
      </trkpt>
      <trkpt lat="48.68316" lon="1.98342">
        <ele>136.43</ele>
        <time>2020-10-25T14:40:56.999Z</time>
      </trkpt>
      <trkpt lat="48.68333" lon="1.98332">
        <ele>142.35</ele>
        <time>2020-10-25T14:41:12.999Z</time>
      </trkpt>
      <trkpt lat="48.68351" lon="1.98325">
        <ele>145.15</ele>
        <time>2020-10-25T14:41:28.999Z</time>
      </trkpt>
      <trkpt lat="48.68368" lon="1.98311">
        <ele>145.06</ele>
        <time>2020-10-25T14:41:43.999Z</time>
      </trkpt>
      <trkpt lat="48.68387" lon="1.98298">
        <ele>145.4</ele>
        <time>2020-10-25T14:42:00.999Z</time>
      </trkpt>
      <trkpt lat="48.68402" lon="1.98282">
        <ele>146.34</ele>
        <time>2020-10-25T14:42:14.999Z</time>
      </trkpt>
      <trkpt lat="48.68421" lon="1.98278">
        <ele>148.62</ele>
        <time>2020-10-25T14:42:30.999Z</time>
      </trkpt>
      <trkpt lat="48.68439" lon="1.9829">
        <ele>152.29</ele>
        <time>2020-10-25T14:42:52.999Z</time>
      </trkpt>
      <trkpt lat="48.68455" lon="1.98304">
        <ele>153.14</ele>
        <time>2020-10-25T14:43:07.999Z</time>
      </trkpt>
      <trkpt lat="48.68467" lon="1.98325">
        <ele>152.37</ele>
        <time>2020-10-25T14:43:18.999Z</time>
      </trkpt>
      <trkpt lat="48.68475" lon="1.9835">
        <ele>149.92</ele>
        <time>2020-10-25T14:43:30.999Z</time>
      </trkpt>
      <trkpt lat="48.68477" lon="1.98378">
        <ele>147.65</ele>
        <time>2020-10-25T14:43:46.999Z</time>
      </trkpt>
      <trkpt lat="48.68488" lon="1.98401">
        <ele>149.89</ele>
        <time>2020-10-25T14:44:05.999Z</time>
      </trkpt>
      <trkpt lat="48.68503" lon="1.98415">
        <ele>152.89</ele>
        <time>2020-10-25T14:44:22.999Z</time>
      </trkpt>
      <trkpt lat="48.68521" lon="1.9843">
        <ele>156.04</ele>
        <time>2020-10-25T14:44:39.999Z</time>
      </trkpt>
      <trkpt lat="48.68537" lon="1.98445">
        <ele>157.3</ele>
        <time>2020-10-25T14:45:00.999Z</time>
      </trkpt>
      <trkpt lat="48.68556" lon="1.98453">
        <ele>159.31</ele>
        <time>2020-10-25T14:45:17.999Z</time>
      </trkpt>
      <trkpt lat="48.68571" lon="1.98468">
        <ele>161.47</ele>
        <time>2020-10-25T14:45:29.999Z</time>
      </trkpt>
      <trkpt lat="48.68583" lon="1.98492">
        <ele>161.83</ele>
        <time>2020-10-25T14:45:42.999Z</time>
      </trkpt>
      <trkpt lat="48.68596" lon="1.98511">
        <ele>162.42</ele>
        <time>2020-10-25T14:45:55.999Z</time>
      </trkpt>
      <trkpt lat="48.6861" lon="1.9853">
        <ele>164.45</ele>
        <time>2020-10-25T14:46:08.999Z</time>
      </trkpt>
      <trkpt lat="48.6862" lon="1.98555">
        <ele>165.27</ele>
        <time>2020-10-25T14:46:24.999Z</time>
      </trkpt>
      <trkpt lat="48.68633" lon="1.98575">
        <ele>165.06</ele>
        <time>2020-10-25T14:46:36.999Z</time>
      </trkpt>
      <trkpt lat="48.68642" lon="1.98601">
        <ele>164.62</ele>
        <time>2020-10-25T14:46:46.999Z</time>
      </trkpt>
      <trkpt lat="48.68643" lon="1.98629">
        <ele>163.06</ele>
        <time>2020-10-25T14:47:04.999Z</time>
      </trkpt>
      <trkpt lat="48.68646" lon="1.98656">
        <ele>161.08</ele>
        <time>2020-10-25T14:47:17.999Z</time>
      </trkpt>
      <trkpt lat="48.68641" lon="1.98684">
        <ele>157.58</ele>
        <time>2020-10-25T14:47:31.999Z</time>
      </trkpt>
      <trkpt lat="48.68647" lon="1.9871">
        <ele>154.01</ele>
        <time>2020-10-25T14:47:47.999Z</time>
      </trkpt>
      <trkpt lat="48.68666" lon="1.98717">
        <ele>153.8</ele>
        <time>2020-10-25T14:48:22.999Z</time>
      </trkpt>
      <trkpt lat="48.68683" lon="1.98706">
        <ele>155.01</ele>
        <time>2020-10-25T14:48:39.999Z</time>
      </trkpt>
      <trkpt lat="48.68699" lon="1.98691">
        <ele>156.69</ele>
        <time>2020-10-25T14:48:59.000Z</time>
      </trkpt>
      <trkpt lat="48.68713" lon="1.98674">
        <ele>157.62</ele>
        <time>2020-10-25T14:49:11.000Z</time>
      </trkpt>
      <trkpt lat="48.68728" lon="1.98658">
        <ele>158.61</ele>
        <time>2020-10-25T14:49:26.000Z</time>
      </trkpt>
      <trkpt lat="48.68743" lon="1.98643">
        <ele>159.31</ele>
        <time>2020-10-25T14:49:40.000Z</time>
      </trkpt>
      <trkpt lat="48.68759" lon="1.9863">
        <ele>160.71</ele>
        <time>2020-10-25T14:49:56.000Z</time>
      </trkpt>
      <trkpt lat="48.68772" lon="1.98609">
        <ele>161.82</ele>
        <time>2020-10-25T14:50:05.000Z</time>
      </trkpt>
      <trkpt lat="48.68785" lon="1.98591">
        <ele>164.83</ele>
        <time>2020-10-25T14:50:21.000Z</time>
      </trkpt>
      <trkpt lat="48.68802" lon="1.98576">
        <ele>167.32</ele>
        <time>2020-10-25T14:50:37.000Z</time>
      </trkpt>
      <trkpt lat="48.68821" lon="1.98572">
        <ele>169.22</ele>
        <time>2020-10-25T14:50:54.000Z</time>
      </trkpt>
      <trkpt lat="48.68841" lon="1.98579">
        <ele>169.65</ele>
        <time>2020-10-25T14:51:03.000Z</time>
      </trkpt>
      <trkpt lat="48.68859" lon="1.98586">
        <ele>168.12</ele>
        <time>2020-10-25T14:51:20.000Z</time>
      </trkpt>
      <trkpt lat="48.68875" lon="1.98603">
        <ele>166.12</ele>
        <time>2020-10-25T14:51:37.000Z</time>
      </trkpt>
      <trkpt lat="48.68886" lon="1.98625">
        <ele>166.13</ele>
        <time>2020-10-25T14:51:51.000Z</time>
      </trkpt>
      <trkpt lat="48.68903" lon="1.98635">
        <ele>165.58</ele>
        <time>2020-10-25T14:51:59.000Z</time>
      </trkpt>
      <trkpt lat="48.68909" lon="1.98661">
        <ele>168.62</ele>
        <time>2020-10-25T14:52:24.000Z</time>
      </trkpt>
      <trkpt lat="48.68918" lon="1.98688">
        <ele>173.37</ele>
        <time>2020-10-25T14:52:42.000Z</time>
      </trkpt>
      <trkpt lat="48.68926" lon="1.98717">
        <ele>175.18</ele>
        <time>2020-10-25T14:52:55.000Z</time>
      </trkpt>
      <trkpt lat="48.68939" lon="1.98738">
        <ele>175.56</ele>
        <time>2020-10-25T14:53:09.000Z</time>
      </trkpt>
      <trkpt lat="48.68943" lon="1.98764">
        <ele>175.57</ele>
        <time>2020-10-25T14:53:26.000Z</time>
      </trkpt>
      <trkpt lat="48.68945" lon="1.98795">
        <ele>175.07</ele>
        <time>2020-10-25T14:53:39.000Z</time>
      </trkpt>
      <trkpt lat="48.68953" lon="1.9882">
        <ele>173.84</ele>
        <time>2020-10-25T14:54:05.000Z</time>
      </trkpt>
      <trkpt lat="48.6897" lon="1.98834">
        <ele>177</ele>
        <time>2020-10-25T14:54:28.000Z</time>
      </trkpt>
      <trkpt lat="48.68986" lon="1.98851">
        <ele>179.99</ele>
        <time>2020-10-25T14:54:40.000Z</time>
      </trkpt>
      <trkpt lat="48.69005" lon="1.98856">
        <ele>181.74</ele>
        <time>2020-10-25T14:54:56.000Z</time>
      </trkpt>
      <trkpt lat="48.69021" lon="1.98842">
        <ele>184.39</ele>
        <time>2020-10-25T14:55:13.000Z</time>
      </trkpt>
      <trkpt lat="48.69038" lon="1.98853">
        <ele>190.07</ele>
        <time>2020-10-25T14:56:24.000Z</time>
      </trkpt>
      <trkpt lat="48.69048" lon="1.9883">
        <ele>179.17</ele>
        <time>2020-10-25T14:58:53.000Z</time>
      </trkpt>
      <trkpt lat="48.69058" lon="1.98802">
        <ele>174.43</ele>
        <time>2020-10-25T14:59:12.000Z</time>
      </trkpt>
      <trkpt lat="48.69071" lon="1.98783">
        <ele>166.95</ele>
        <time>2020-10-25T14:59:36.000Z</time>
      </trkpt>
      <trkpt lat="48.69088" lon="1.98767">
        <ele>163.13</ele>
        <time>2020-10-25T14:59:57.000Z</time>
      </trkpt>
      <trkpt lat="48.69098" lon="1.98741">
        <ele>161.19</ele>
        <time>2020-10-25T15:00:19.000Z</time>
      </trkpt>
      <trkpt lat="48.69111" lon="1.98721">
        <ele>158.68</ele>
        <time>2020-10-25T15:00:36.000Z</time>
      </trkpt>
      <trkpt lat="48.69125" lon="1.98704">
        <ele>155.47</ele>
        <time>2020-10-25T15:00:55.000Z</time>
      </trkpt>
      <trkpt lat="48.69143" lon="1.98697">
        <ele>153.63</ele>
        <time>2020-10-25T15:01:14.000Z</time>
      </trkpt>
      <trkpt lat="48.6916" lon="1.98686">
        <ele>151.16</ele>
        <time>2020-10-25T15:01:33.000Z</time>
      </trkpt>
      <trkpt lat="48.69181" lon="1.98681">
        <ele>149.73</ele>
        <time>2020-10-25T15:01:45.000Z</time>
      </trkpt>
      <trkpt lat="48.69199" lon="1.98676">
        <ele>147.02</ele>
        <time>2020-10-25T15:02:05.000Z</time>
      </trkpt>
      <trkpt lat="48.69217" lon="1.98667">
        <ele>146.77</ele>
        <time>2020-10-25T15:02:27.999Z</time>
      </trkpt>
      <trkpt lat="48.69233" lon="1.98647">
        <ele>145.9</ele>
        <time>2020-10-25T15:02:39.999Z</time>
      </trkpt>
      <trkpt lat="48.69246" lon="1.98626">
        <ele>144.03</ele>
        <time>2020-10-25T15:03:00.999Z</time>
      </trkpt>
      <trkpt lat="48.69249" lon="1.98598">
        <ele>142.78</ele>
        <time>2020-10-25T15:03:20.999Z</time>
      </trkpt>
      <trkpt lat="48.69262" lon="1.98578">
        <ele>140.79</ele>
        <time>2020-10-25T15:03:41.999Z</time>
      </trkpt>
      <trkpt lat="48.6928" lon="1.9857">
        <ele>138.84</ele>
        <time>2020-10-25T15:03:53.999Z</time>
      </trkpt>
      <trkpt lat="48.69278" lon="1.98541">
        <ele>131.41</ele>
        <time>2020-10-25T15:04:24.999Z</time>
      </trkpt>
      <trkpt lat="48.69287" lon="1.98516">
        <ele>127.21</ele>
        <time>2020-10-25T15:04:37.999Z</time>
      </trkpt>
      <trkpt lat="48.69284" lon="1.98488">
        <ele>118.96</ele>
        <time>2020-10-25T15:05:06.999Z</time>
      </trkpt>
      <trkpt lat="48.69274" lon="1.98463">
        <ele>112.5</ele>
        <time>2020-10-25T15:06:25.999Z</time>
      </trkpt>
      <trkpt lat="48.69289" lon="1.98479">
        <ele>106.66</ele>
        <time>2020-10-25T15:08:15.999Z</time>
      </trkpt>
      <trkpt lat="48.69308" lon="1.98482">
        <ele>106.14</ele>
        <time>2020-10-25T15:08:32.999Z</time>
      </trkpt>
      <trkpt lat="48.69326" lon="1.98489">
        <ele>106.75</ele>
        <time>2020-10-25T15:08:52.999Z</time>
      </trkpt>
      <trkpt lat="48.69345" lon="1.98492">
        <ele>105.68</ele>
        <time>2020-10-25T15:09:04.999Z</time>
      </trkpt>
      <trkpt lat="48.69363" lon="1.98483">
        <ele>104.93</ele>
        <time>2020-10-25T15:09:16.999Z</time>
      </trkpt>
      <trkpt lat="48.69382" lon="1.98486">
        <ele>105.57</ele>
        <time>2020-10-25T15:09:26.999Z</time>
      </trkpt>
      <trkpt lat="48.69402" lon="1.98476">
        <ele>107.78</ele>
        <time>2020-10-25T15:09:57.999Z</time>
      </trkpt>
      <trkpt lat="48.69417" lon="1.98461">
        <ele>107.85</ele>
        <time>2020-10-25T15:10:03.999Z</time>
      </trkpt>
      <trkpt lat="48.69433" lon="1.98446">
        <ele>107.34</ele>
        <time>2020-10-25T15:10:17.999Z</time>
      </trkpt>
      <trkpt lat="48.69444" lon="1.98423">
        <ele>105.76</ele>
        <time>2020-10-25T15:10:32.999Z</time>
      </trkpt>
      <trkpt lat="48.69456" lon="1.98401">
        <ele>104.61</ele>
        <time>2020-10-25T15:10:45.999Z</time>
      </trkpt>
      <trkpt lat="48.69466" lon="1.98378">
        <ele>104.95</ele>
        <time>2020-10-25T15:11:00.999Z</time>
      </trkpt>
      <trkpt lat="48.69477" lon="1.98356">
        <ele>104.56</ele>
        <time>2020-10-25T15:11:17.999Z</time>
      </trkpt>
      <trkpt lat="48.69488" lon="1.98334">
        <ele>104.22</ele>
        <time>2020-10-25T15:11:34.999Z</time>
      </trkpt>
      <trkpt lat="48.695" lon="1.98313">
        <ele>104.35</ele>
        <time>2020-10-25T15:11:45.999Z</time>
      </trkpt>
      <trkpt lat="48.69518" lon="1.9831">
        <ele>103.2</ele>
        <time>2020-10-25T15:12:15.999Z</time>
      </trkpt>
      <trkpt lat="48.69536" lon="1.98307">
        <ele>102.15</ele>
        <time>2020-10-25T15:12:32.999Z</time>
      </trkpt>
      <trkpt lat="48.69553" lon="1.98296">
        <ele>102.08</ele>
        <time>2020-10-25T15:12:49.999Z</time>
      </trkpt>
      <trkpt lat="48.69575" lon="1.98293">
        <ele>104.1</ele>
        <time>2020-10-25T15:13:06.999Z</time>
      </trkpt>
      <trkpt lat="48.6959" lon="1.98275">
        <ele>99.27</ele>
        <time>2020-10-25T15:15:14.999Z</time>
      </trkpt>
      <trkpt lat="48.69606" lon="1.9826">
        <ele>98.92</ele>
        <time>2020-10-25T15:15:33.999Z</time>
      </trkpt>
      <trkpt lat="48.69619" lon="1.9824">
        <ele>99.85</ele>
        <time>2020-10-25T15:15:49.000Z</time>
      </trkpt>
      <trkpt lat="48.69634" lon="1.98223">
        <ele>101.73</ele>
        <time>2020-10-25T15:16:08.000Z</time>
      </trkpt>
      <trkpt lat="48.69645" lon="1.98202">
        <ele>103.02</ele>
        <time>2020-10-25T15:16:24.000Z</time>
      </trkpt>
      <trkpt lat="48.69656" lon="1.98179">
        <ele>103.98</ele>
        <time>2020-10-25T15:16:41.000Z</time>
      </trkpt>
      <trkpt lat="48.69667" lon="1.98157">
        <ele>107.1</ele>
        <time>2020-10-25T15:17:08.000Z</time>
      </trkpt>
      <trkpt lat="48.69679" lon="1.98134">
        <ele>107.33</ele>
        <time>2020-10-25T15:17:37.000Z</time>
      </trkpt>
      <trkpt lat="48.69693" lon="1.98115">
        <ele>106.92</ele>
        <time>2020-10-25T15:18:06.000Z</time>
      </trkpt>
      <trkpt lat="48.697" lon="1.9809">
        <ele>106.37</ele>
        <time>2020-10-25T15:18:25.000Z</time>
      </trkpt>
      <trkpt lat="48.69703" lon="1.98062">
        <ele>117.34</ele>
        <time>2020-10-25T15:21:17.000Z</time>
      </trkpt>
      <trkpt lat="48.6971" lon="1.98036">
        <ele>118.46</ele>
        <time>2020-10-25T15:21:29.000Z</time>
      </trkpt>
      <trkpt lat="48.69718" lon="1.9801">
        <ele>118.93</ele>
        <time>2020-10-25T15:21:40.000Z</time>
      </trkpt>
      <trkpt lat="48.69722" lon="1.9798">
        <ele>117.96</ele>
        <time>2020-10-25T15:22:08.000Z</time>
      </trkpt>
      <trkpt lat="48.69729" lon="1.97954">
        <ele>117.75</ele>
        <time>2020-10-25T15:22:19.000Z</time>
      </trkpt>
      <trkpt lat="48.69736" lon="1.97927">
        <ele>118.89</ele>
        <time>2020-10-25T15:22:33.000Z</time>
      </trkpt>
      <trkpt lat="48.69747" lon="1.97903">
        <ele>119.92</ele>
        <time>2020-10-25T15:22:50.000Z</time>
      </trkpt>
      <trkpt lat="48.6976" lon="1.97879">
        <ele>118.04</ele>
        <time>2020-10-25T15:23:12.000Z</time>
      </trkpt>
      <trkpt lat="48.69778" lon="1.97891">
        <ele>116.3</ele>
        <time>2020-10-25T15:23:30.000Z</time>
      </trkpt>
      <trkpt lat="48.69795" lon="1.97901">
        <ele>116.02</ele>
        <time>2020-10-25T15:23:45.000Z</time>
      </trkpt>
      <trkpt lat="48.69813" lon="1.97896">
        <ele>114.01</ele>
        <time>2020-10-25T15:25:04.000Z</time>
      </trkpt>
      <trkpt lat="48.69831" lon="1.97904">
        <ele>112.44</ele>
        <time>2020-10-25T15:25:33.000Z</time>
      </trkpt>
      <trkpt lat="48.69845" lon="1.97922">
        <ele>109.8</ele>
        <time>2020-10-25T15:25:45.000Z</time>
      </trkpt>
      <trkpt lat="48.6986" lon="1.97938">
        <ele>105.4</ele>
        <time>2020-10-25T15:26:02.000Z</time>
      </trkpt>
      <trkpt lat="48.69879" lon="1.97944">
        <ele>101.72</ele>
        <time>2020-10-25T15:26:17.000Z</time>
      </trkpt>
      <trkpt lat="48.69896" lon="1.97949">
        <ele>100.66</ele>
        <time>2020-10-25T15:26:28.000Z</time>
      </trkpt>
      <trkpt lat="48.69914" lon="1.97962">
        <ele>98.59</ele>
        <time>2020-10-25T15:26:45.000Z</time>
      </trkpt>
      <trkpt lat="48.6993" lon="1.97974">
        <ele>96.73</ele>
        <time>2020-10-25T15:26:58.000Z</time>
      </trkpt>
      <trkpt lat="48.69947" lon="1.97986">
        <ele>92.75</ele>
        <time>2020-10-25T15:27:18.000Z</time>
      </trkpt>
      <trkpt lat="48.69963" lon="1.97998">
        <ele>90.16</ele>
        <time>2020-10-25T15:27:33.000Z</time>
      </trkpt>
      <trkpt lat="48.6998" lon="1.98011">
        <ele>88.83</ele>
        <time>2020-10-25T15:27:47.000Z</time>
      </trkpt>
      <trkpt lat="48.69997" lon="1.98021">
        <ele>87.8</ele>
        <time>2020-10-25T15:28:01.000Z</time>
      </trkpt>
      <trkpt lat="48.70013" lon="1.98035">
        <ele>87.37</ele>
        <time>2020-10-25T15:28:15.000Z</time>
      </trkpt>
      <trkpt lat="48.70031" lon="1.98043">
        <ele>87.98</ele>
        <time>2020-10-25T15:28:31.000Z</time>
      </trkpt>
      <trkpt lat="48.70046" lon="1.9806">
        <ele>87.2</ele>
        <time>2020-10-25T15:28:46.000Z</time>
      </trkpt>
      <trkpt lat="48.70065" lon="1.98061">
        <ele>85.96</ele>
        <time>2020-10-25T15:28:57.999Z</time>
      </trkpt>
      <trkpt lat="48.70083" lon="1.98069">
        <ele>89.98</ele>
        <time>2020-10-25T15:29:37.999Z</time>
      </trkpt>
      <trkpt lat="48.70099" lon="1.98082">
        <ele>92.45</ele>
        <time>2020-10-25T15:29:55.999Z</time>
      </trkpt>
      <trkpt lat="48.70116" lon="1.98097">
        <ele>92.6</ele>
        <time>2020-10-25T15:30:31.999Z</time>
      </trkpt>
      <trkpt lat="48.70127" lon="1.9812">
        <ele>96.34</ele>
        <time>2020-10-25T15:30:53.999Z</time>
      </trkpt>
      <trkpt lat="48.70144" lon="1.98136">
        <ele>96.28</ele>
        <time>2020-10-25T15:31:11.999Z</time>
      </trkpt>
      <trkpt lat="48.7016" lon="1.98149">
        <ele>95.05</ele>
        <time>2020-10-25T15:31:24.999Z</time>
      </trkpt>
      <trkpt lat="48.70174" lon="1.98167">
        <ele>95.22</ele>
        <time>2020-10-25T15:31:38.999Z</time>
      </trkpt>
      <trkpt lat="48.70192" lon="1.98175">
        <ele>95.8</ele>
        <time>2020-10-25T15:31:53.999Z</time>
      </trkpt>
      <trkpt lat="48.70207" lon="1.98194">
        <ele>95.06</ele>
        <time>2020-10-25T15:32:06.999Z</time>
      </trkpt>
      <trkpt lat="48.70222" lon="1.98209">
        <ele>95.36</ele>
        <time>2020-10-25T15:32:19.999Z</time>
      </trkpt>
      <trkpt lat="48.70236" lon="1.98228">
        <ele>95.79</ele>
        <time>2020-10-25T15:32:33.999Z</time>
      </trkpt>
      <trkpt lat="48.70251" lon="1.98247">
        <ele>96.58</ele>
        <time>2020-10-25T15:32:46.999Z</time>
      </trkpt>
      <trkpt lat="48.70262" lon="1.98268">
        <ele>98.09</ele>
        <time>2020-10-25T15:33:00.999Z</time>
      </trkpt>
      <trkpt lat="48.70274" lon="1.98288">
        <ele>99.79</ele>
        <time>2020-10-25T15:33:14.999Z</time>
      </trkpt>
      <trkpt lat="48.70286" lon="1.98309">
        <ele>102.34</ele>
        <time>2020-10-25T15:33:29.999Z</time>
      </trkpt>
      <trkpt lat="48.70301" lon="1.98327">
        <ele>103.62</ele>
        <time>2020-10-25T15:33:40.999Z</time>
      </trkpt>
      <trkpt lat="48.70315" lon="1.98348">
        <ele>103.97</ele>
        <time>2020-10-25T15:33:53.999Z</time>
      </trkpt>
      <trkpt lat="48.70326" lon="1.9837">
        <ele>104.24</ele>
        <time>2020-10-25T15:34:09.999Z</time>
      </trkpt>
      <trkpt lat="48.70339" lon="1.9839">
        <ele>104.61</ele>
        <time>2020-10-25T15:34:22.999Z</time>
      </trkpt>
      <trkpt lat="48.70356" lon="1.98404">
        <ele>102.26</ele>
        <time>2020-10-25T15:35:04.999Z</time>
      </trkpt>
    </trkseg>
  </trk>
</gpx>